Date/Time EST BROAD KEY-Water Temp BROAD KEY-Linear Conductivity BROAD KEY-Non Linear Conductivity BROAD KEY-Water Level BROAD KEY-Salinity BROAD KEY-TDS BROAD KEY-Air Temp BROAD KEY-Water Temp in F BROAD KEY-Air Temp in F
22-Jan-2018 19:20 20.69 1,450.05 1,449.02 3.30 0.72 706.40 97.80 69.24 208.04
22-Jan-2018 19:15 20.71 1,455.31 1,454.29 3.30 0.73 708.67 97.94 69.28 208.29
22-Jan-2018 17:55 20.98 1,488.53 1,487.72 3.44 0.74 724.76 97.93 69.76 208.27
22-Jan-2018 15:45 20.87 1,533.05 1,532.12 3.89 0.77 751.45 98.31 69.57 208.96
22-Jan-2018 15:00 20.63 1,531.59 1,530.44 4.06 0.76 745.58 98.32 69.13 208.98
22-Jan-2018 12:10 19.98 1,461.64 1,459.89 4.20 0.73 711.85 98.74 67.96 209.73
22-Jan-2018 10:40 19.70 1,437.39 1,435.36 3.94 0.72 705.06 99.02 67.46 210.24
21-Jan-2018 22:35 19.35 1,417.04 1,414.62 3.98 0.70 691.02 97.13 66.83 206.83
21-Jan-2018 21:05 19.18 1,401.38 1,398.78 3.60 0.70 686.63 97.02 66.52 206.64
21-Jan-2018 20:20 19.10 1,378.94 1,376.27 3.50 0.68 679.95 97.00 66.38 206.60
21-Jan-2018 20:15 19.10 1,378.45 1,375.79 3.49 0.68 679.51 97.04 66.38 206.67
21-Jan-2018 19:55 19.11 1,377.90 1,375.26 3.41 0.68 679.96 97.08 66.40 206.74
21-Jan-2018 19:30 19.13 1,386.05 1,383.42 3.32 0.69 683.68 97.11 66.43 206.80
21-Jan-2018 19:20 19.13 1,387.53 1,384.89 3.33 0.69 680.32 97.17 66.43 206.91
21-Jan-2018 19:15 19.14 1,390.40 1,387.76 3.34 0.69 681.98 97.26 66.45 207.07
21-Jan-2018 18:35 19.24 1,418.87 1,416.31 3.29 0.71 691.97 97.44 66.63 207.39
21-Jan-2018 18:30 19.27 1,420.74 1,418.22 3.29 0.71 693.33 97.37 66.69 207.27
21-Jan-2018 18:25 19.29 1,421.21 1,418.71 3.30 0.71 693.31 97.26 66.72 207.07
21-Jan-2018 18:20 19.31 1,421.15 1,418.68 3.31 0.71 692.82 97.10 66.76 206.78
21-Jan-2018 17:45 19.41 1,433.33 1,430.97 3.34 0.71 698.46 97.38 66.94 207.28
21-Jan-2018 17:30 19.46 1,440.20 1,437.89 3.40 0.72 702.00 97.50 67.03 207.50
21-Jan-2018 17:20 19.47 1,440.26 1,437.95 3.39 0.72 702.49 97.48 67.05 207.46
21-Jan-2018 17:10 19.53 1,444.12 1,441.89 3.41 0.72 708.10 97.76 67.15 207.97
21-Jan-2018 17:05 19.54 1,445.99 1,443.76 3.41 0.72 708.80 97.81 67.17 208.06
21-Jan-2018 16:50 19.55 1,450.03 1,447.81 3.44 0.72 710.90 97.69 67.19 207.84
21-Jan-2018 16:45 19.56 1,455.19 1,452.97 3.46 0.72 713.00 97.38 67.21 207.28
21-Jan-2018 16:35 19.55 1,459.24 1,457.00 3.48 0.72 715.52 97.61 67.19 207.70
21-Jan-2018 16:20 19.56 1,464.01 1,461.78 3.52 0.73 721.46 97.78 67.21 208.00
21-Jan-2018 16:15 19.56 1,463.00 1,460.76 3.57 0.73 721.46 97.91 67.21 208.24
21-Jan-2018 16:10 19.56 1,459.69 1,457.45 3.59 0.73 719.50 97.77 67.21 207.99
21-Jan-2018 16:05 19.57 1,470.95 1,468.72 3.62 0.73 716.40 97.58 67.23 207.64
21-Jan-2018 16:00 19.60 1,472.66 1,470.46 3.64 0.73 717.50 97.45 67.28 207.41
21-Jan-2018 15:50 19.62 1,477.03 1,474.85 3.65 0.74 720.16 97.55 67.32 207.59
21-Jan-2018 15:35 19.66 1,489.31 1,487.16 3.72 0.74 725.66 97.94 67.39 208.29
21-Jan-2018 15:25 19.65 1,494.71 1,492.54 3.77 0.75 728.68 97.53 67.37 207.55
21-Jan-2018 15:20 19.66 1,495.76 1,493.60 3.80 0.75 729.01 97.51 67.39 207.52
21-Jan-2018 15:15 19.70 1,493.56 1,491.46 3.80 0.75 728.51 97.60 67.46 207.68
21-Jan-2018 15:05 19.70 1,494.14 1,492.04 3.86 0.75 727.84 97.75 67.46 207.95
21-Jan-2018 14:55 19.60 1,505.86 1,503.62 3.92 0.75 733.53 97.74 67.28 207.93
21-Jan-2018 14:50 19.58 1,506.58 1,504.30 3.94 0.75 734.83 97.80 67.24 208.04
21-Jan-2018 14:45 19.56 1,507.39 1,505.09 3.94 0.75 734.33 98.06 67.21 208.51
21-Jan-2018 14:40 19.47 1,502.83 1,500.43 3.98 0.75 736.86 97.67 67.05 207.81
21-Jan-2018 14:35 19.47 1,501.87 1,499.46 3.98 0.75 732.17 97.73 67.05 207.91
21-Jan-2018 14:30 19.45 1,500.25 1,497.82 4.04 0.75 735.93 97.55 67.01 207.59
21-Jan-2018 14:20 19.42 1,505.82 1,503.35 4.07 0.75 738.71 97.65 66.96 207.77
21-Jan-2018 14:15 19.39 1,496.00 1,493.50 4.10 0.75 733.84 97.76 66.90 207.97
21-Jan-2018 14:10 19.39 1,491.88 1,489.39 4.07 0.74 731.86 97.92 66.90 208.26
21-Jan-2018 14:05 19.38 1,491.61 1,489.11 4.09 0.74 731.40 98.11 66.88 208.60
21-Jan-2018 14:00 19.35 1,485.39 1,482.86 4.12 0.74 733.07 98.22 66.83 208.80
21-Jan-2018 13:50 19.30 1,490.41 1,487.81 4.19 0.74 736.17 98.22 66.74 208.80
21-Jan-2018 13:45 19.29 1,486.92 1,484.31 4.22 0.74 733.07 98.23 66.72 208.81
21-Jan-2018 13:35 19.25 1,484.81 1,482.15 4.24 0.74 732.58 98.16 66.65 208.69
21-Jan-2018 13:30 19.16 1,482.35 1,479.58 4.26 0.74 731.35 98.00 66.49 208.40
21-Jan-2018 13:25 19.14 1,481.45 1,478.65 4.24 0.74 731.13 98.24 66.45 208.83
21-Jan-2018 13:20 19.16 1,477.40 1,474.63 4.27 0.74 728.61 98.61 66.49 209.50
21-Jan-2018 13:10 19.15 1,473.79 1,471.02 4.28 0.73 727.28 98.34 66.47 209.01
21-Jan-2018 13:05 19.15 1,475.10 1,472.32 4.31 0.73 727.19 98.57 66.47 209.43
21-Jan-2018 13:00 19.14 1,475.95 1,473.16 4.34 0.74 728.12 98.13 66.45 208.63
21-Jan-2018 12:55 19.13 1,474.02 1,471.22 4.30 0.73 726.84 98.13 66.43 208.63
21-Jan-2018 12:45 19.11 1,469.62 1,466.81 4.33 0.73 725.57 98.38 66.40 209.08
21-Jan-2018 12:40 19.10 1,466.80 1,463.97 4.36 0.73 723.85 98.25 66.38 208.85
21-Jan-2018 12:30 19.09 1,458.54 1,455.70 4.28 0.73 715.70 98.13 66.36 208.63
21-Jan-2018 12:20 19.07 1,460.31 1,457.44 4.29 0.73 716.08 97.75 66.33 207.95
21-Jan-2018 12:15 19.02 1,456.53 1,453.61 4.35 0.72 714.45 97.84 66.24 208.11
21-Jan-2018 12:10 19.00 1,450.83 1,447.89 4.34 0.72 711.12 97.60 66.20 207.68
21-Jan-2018 12:05 18.96 1,446.63 1,443.66 4.34 0.72 709.06 97.83 66.13 208.09
21-Jan-2018 12:00 18.93 1,444.59 1,441.58 4.34 0.72 706.97 98.04 66.07 208.47
21-Jan-2018 11:55 18.89 1,456.76 1,453.66 4.29 0.72 709.86 98.01 66.00 208.42
21-Jan-2018 11:45 18.83 1,452.43 1,449.25 4.24 0.72 707.67 97.96 65.89 208.33
21-Jan-2018 11:30 18.71 1,441.67 1,438.35 4.29 0.72 702.47 98.08 65.68 208.54
21-Jan-2018 06:10 17.96 1,396.26 1,391.91 3.10 0.69 688.19 96.99 64.33 206.58
21-Jan-2018 06:05 17.97 1,398.60 1,394.24 3.13 0.69 689.63 96.85 64.35 206.33
21-Jan-2018 05:55 18.00 1,396.36 1,392.07 3.15 0.69 684.65 96.91 64.40 206.44
21-Jan-2018 05:50 18.01 1,395.11 1,390.84 3.14 0.69 684.27 97.06 64.42 206.71
21-Jan-2018 05:40 18.02 1,394.93 1,390.67 3.16 0.69 683.43 97.00 64.44 206.60
21-Jan-2018 05:35 18.02 1,393.69 1,389.44 3.17 0.69 683.62 96.86 64.44 206.35
21-Jan-2018 05:30 18.02 1,393.87 1,389.62 3.17 0.69 683.62 96.78 64.44 206.20
21-Jan-2018 05:25 18.02 1,397.09 1,392.83 3.19 0.69 684.29 96.74 64.44 206.13
21-Jan-2018 05:20 18.03 1,396.51 1,392.26 3.20 0.70 684.44 96.59 64.45 205.86
21-Jan-2018 05:15 18.02 1,404.91 1,400.63 3.23 0.70 685.24 96.73 64.44 206.11
21-Jan-2018 05:10 18.03 1,404.73 1,400.46 3.22 0.70 685.20 96.78 64.45 206.20
21-Jan-2018 05:00 18.03 1,409.26 1,404.97 3.25 0.70 687.12 96.72 64.45 206.10
21-Jan-2018 04:45 18.03 1,414.14 1,409.84 3.30 0.70 689.44 96.87 64.45 206.37
21-Jan-2018 03:40 18.10 1,458.44 1,454.12 3.52 0.72 714.85 96.93 64.58 206.47
21-Jan-2018 03:35 18.11 1,459.56 1,455.26 3.57 0.72 714.87 96.84 64.60 206.31
21-Jan-2018 03:30 18.12 1,460.77 1,456.49 3.58 0.73 715.73 96.64 64.62 205.95
21-Jan-2018 03:20 18.14 1,466.18 1,461.91 3.60 0.73 718.86 96.73 64.65 206.11
21-Jan-2018 03:15 18.18 1,467.97 1,463.76 3.64 0.72 719.74 96.63 64.72 205.93
21-Jan-2018 03:05 18.19 1,461.78 1,457.60 3.65 0.73 720.97 96.73 64.74 206.11
21-Jan-2018 03:00 18.09 1,463.52 1,459.18 3.72 0.73 721.82 96.65 64.56 205.97
21-Jan-2018 02:50 18.10 1,465.56 1,461.22 3.73 0.73 723.15 96.86 64.58 206.35
21-Jan-2018 02:45 18.14 1,474.83 1,470.53 3.79 0.73 727.18 96.83 64.65 206.29
21-Jan-2018 02:40 18.19 1,488.27 1,484.01 3.79 0.74 724.88 96.74 64.74 206.13
21-Jan-2018 02:35 18.29 1,493.01 1,488.91 3.83 0.74 727.53 96.73 64.92 206.11
21-Jan-2018 02:30 18.39 1,492.64 1,488.71 3.87 0.74 727.30 96.68 65.10 206.02
21-Jan-2018 02:25 18.40 1,491.79 1,487.87 3.90 0.74 727.65 96.71 65.12 206.08
21-Jan-2018 02:15 18.41 1,493.84 1,489.92 3.95 0.74 727.01 96.84 65.14 206.31
21-Jan-2018 02:10 18.41 1,492.62 1,488.71 3.97 0.74 726.69 96.85 65.14 206.33
21-Jan-2018 02:05 18.42 1,492.79 1,488.89 3.98 0.74 727.37 96.71 65.16 206.08
21-Jan-2018 02:00 18.43 1,490.81 1,486.94 3.99 0.74 726.36 96.84 65.17 206.31
21-Jan-2018 01:50 18.44 1,493.88 1,490.01 4.01 0.74 727.85 96.85 65.19 206.33
21-Jan-2018 01:45 18.44 1,489.66 1,485.82 4.03 0.74 726.07 96.80 65.19 206.24
21-Jan-2018 01:40 18.45 1,489.01 1,485.17 4.05 0.74 725.76 96.86 65.21 206.35
21-Jan-2018 01:30 18.44 1,484.65 1,480.82 4.07 0.74 723.37 96.78 65.19 206.20
21-Jan-2018 01:20 18.46 1,479.09 1,475.30 4.12 0.74 725.02 96.72 65.23 206.10
21-Jan-2018 01:15 18.47 1,472.86 1,469.09 4.15 0.73 721.87 96.81 65.25 206.26
21-Jan-2018 01:10 18.47 1,469.04 1,465.28 4.19 0.73 720.05 96.63 65.25 205.93
21-Jan-2018 01:00 18.45 1,457.56 1,453.82 4.20 0.72 714.68 96.70 65.21 206.06
21-Jan-2018 00:50 18.44 1,461.80 1,458.02 4.22 0.72 716.76 96.52 65.19 205.74
21-Jan-2018 00:45 18.43 1,464.24 1,460.45 4.23 0.72 717.17 96.62 65.17 205.92
21-Jan-2018 00:40 18.43 1,454.15 1,450.38 4.24 0.72 717.26 96.57 65.17 205.83
21-Jan-2018 00:35 18.42 1,450.38 1,446.60 4.23 0.72 715.08 96.54 65.16 205.77
21-Jan-2018 00:30 18.41 1,448.89 1,445.11 4.24 0.72 714.43 96.55 65.14 205.79
21-Jan-2018 00:25 18.40 1,447.69 1,443.89 4.25 0.72 713.74 96.56 65.12 205.81
21-Jan-2018 00:20 18.39 1,447.98 1,444.16 4.26 0.72 713.62 96.78 65.10 206.20
21-Jan-2018 00:15 18.38 1,446.78 1,442.95 4.25 0.72 713.02 96.70 65.08 206.06
21-Jan-2018 00:05 18.37 1,447.68 1,443.84 4.24 0.72 713.99 96.65 65.07 205.97
21-Jan-2018 00:00 18.37 1,443.76 1,439.91 4.24 0.72 712.35 96.80 65.07 206.24
20-Jan-2018 23:50 18.35 1,444.67 1,440.80 4.23 0.72 713.02 96.93 65.03 206.47
20-Jan-2018 23:45 18.34 1,441.05 1,437.17 4.22 0.72 710.96 96.87 65.01 206.37
20-Jan-2018 23:40 18.33 1,438.12 1,434.23 4.21 0.71 709.03 96.90 64.99 206.42
20-Jan-2018 23:35 18.32 1,436.00 1,432.10 4.20 0.71 707.93 96.91 64.98 206.44
20-Jan-2018 23:30 18.31 1,434.30 1,430.39 4.18 0.71 707.30 96.80 64.96 206.24
20-Jan-2018 23:20 18.30 1,431.59 1,427.67 4.18 0.71 705.69 96.76 64.94 206.17
20-Jan-2018 23:15 18.30 1,428.60 1,424.69 4.17 0.71 700.27 96.73 64.94 206.11
20-Jan-2018 23:05 18.29 1,423.78 1,419.86 4.16 0.71 698.10 96.86 64.92 206.35
20-Jan-2018 23:00 18.27 1,414.74 1,410.82 4.17 0.70 693.18 96.91 64.89 206.44
20-Jan-2018 22:50 18.25 1,409.48 1,405.55 4.16 0.70 690.71 96.73 64.85 206.11
20-Jan-2018 22:45 18.23 1,405.07 1,401.12 4.14 0.70 688.73 96.73 64.81 206.11
20-Jan-2018 22:40 18.20 1,401.15 1,397.17 4.12 0.70 686.91 96.75 64.76 206.15
20-Jan-2018 22:30 18.16 1,402.03 1,397.99 4.09 0.70 683.31 96.82 64.69 206.28
20-Jan-2018 22:25 18.13 1,399.70 1,395.61 4.06 0.69 682.70 96.72 64.63 206.10
20-Jan-2018 22:20 18.11 1,394.57 1,390.46 4.06 0.69 679.51 96.86 64.60 206.35
20-Jan-2018 22:10 18.11 1,393.60 1,389.50 4.05 0.69 679.55 96.77 64.60 206.19
20-Jan-2018 22:05 18.11 1,392.24 1,388.13 4.05 0.69 678.38 96.84 64.60 206.31
20-Jan-2018 22:00 18.06 1,382.25 1,378.10 4.03 0.69 673.86 96.81 64.51 206.26
20-Jan-2018 21:55 18.03 1,379.14 1,374.94 4.03 0.68 672.04 96.95 64.45 206.51
20-Jan-2018 21:45 18.01 1,375.60 1,371.39 4.03 0.68 670.55 96.95 64.42 206.51
20-Jan-2018 21:40 17.98 1,371.89 1,367.63 4.01 0.68 669.16 96.76 64.36 206.17
20-Jan-2018 21:35 17.95 1,371.55 1,367.25 3.99 0.68 669.32 96.67 64.31 206.01
20-Jan-2018 21:30 17.91 1,370.46 1,366.10 3.98 0.68 668.25 96.83 64.24 206.29
20-Jan-2018 21:25 17.91 1,371.57 1,367.20 3.95 0.68 667.97 96.93 64.24 206.47
20-Jan-2018 21:20 17.91 1,370.84 1,366.48 3.93 0.68 667.53 96.93 64.24 206.47
20-Jan-2018 21:10 17.92 1,370.75 1,366.40 3.87 0.68 672.54 96.99 64.26 206.58
20-Jan-2018 21:05 17.91 1,368.22 1,363.86 3.86 0.68 669.66 96.91 64.24 206.44
20-Jan-2018 21:00 17.90 1,369.42 1,365.04 3.83 0.68 671.11 97.00 64.22 206.60
20-Jan-2018 20:50 17.91 1,369.24 1,364.88 3.81 0.68 671.20 96.69 64.24 206.04
20-Jan-2018 20:45 17.90 1,370.44 1,366.06 3.80 0.68 671.20 97.00 64.22 206.60
20-Jan-2018 20:40 17.89 1,370.70 1,366.31 3.77 0.68 671.97 96.98 64.20 206.56
20-Jan-2018 20:35 17.89 1,371.55 1,367.16 3.75 0.68 671.79 97.03 64.20 206.65
20-Jan-2018 20:30 17.89 1,362.18 1,357.82 3.74 0.67 671.33 97.08 64.20 206.74
20-Jan-2018 20:20 17.88 1,366.78 1,362.39 3.69 0.68 673.57 97.04 64.18 206.67
20-Jan-2018 20:10 17.88 1,360.78 1,356.40 3.65 0.67 670.86 97.08 64.18 206.74
20-Jan-2018 20:05 17.87 1,360.58 1,356.20 3.66 0.67 669.99 96.82 64.17 206.28
20-Jan-2018 19:55 17.86 1,365.09 1,360.67 3.62 0.68 665.20 96.91 64.15 206.44
20-Jan-2018 19:45 17.85 1,358.25 1,353.83 3.57 0.67 662.42 96.79 64.13 206.22
20-Jan-2018 19:40 17.84 1,355.86 1,351.43 3.56 0.67 660.33 96.97 64.11 206.55
20-Jan-2018 19:35 17.83 1,353.40 1,348.96 3.56 0.67 659.10 96.93 64.09 206.47
20-Jan-2018 19:30 17.83 1,351.13 1,346.70 3.56 0.67 658.44 96.92 64.09 206.46
20-Jan-2018 19:25 17.84 1,350.41 1,346.00 3.55 0.67 658.57 96.94 64.11 206.49
20-Jan-2018 19:20 17.84 1,350.60 1,346.20 3.52 0.67 658.27 96.85 64.11 206.33
20-Jan-2018 19:10 17.85 1,348.62 1,344.23 3.51 0.67 657.52 96.91 64.13 206.44
20-Jan-2018 19:05 17.85 1,348.08 1,343.70 3.49 0.67 657.22 97.00 64.13 206.60
20-Jan-2018 18:55 17.85 1,352.15 1,347.76 3.45 0.67 659.02 96.91 64.13 206.44
20-Jan-2018 18:50 17.84 1,354.69 1,350.28 3.43 0.67 660.60 97.04 64.11 206.67
20-Jan-2018 18:45 17.86 1,358.91 1,354.49 3.42 0.67 662.20 97.07 64.15 206.73
20-Jan-2018 18:40 17.87 1,358.38 1,353.99 3.43 0.67 666.28 96.95 64.17 206.51
20-Jan-2018 18:35 17.88 1,362.16 1,357.78 3.43 0.67 667.73 97.08 64.18 206.74
20-Jan-2018 18:30 17.88 1,363.92 1,359.54 3.41 0.68 668.73 97.27 64.18 207.09
20-Jan-2018 18:25 17.90 1,369.04 1,364.66 3.40 0.68 671.06 96.98 64.22 206.56
20-Jan-2018 18:20 17.91 1,374.38 1,370.00 3.39 0.68 673.91 97.00 64.24 206.60
20-Jan-2018 18:10 17.91 1,377.41 1,373.03 3.38 0.68 674.61 97.14 64.24 206.85
20-Jan-2018 18:05 17.93 1,377.64 1,373.29 3.36 0.68 675.78 97.36 64.27 207.25
20-Jan-2018 17:55 17.97 1,373.27 1,368.99 3.33 0.68 677.07 97.16 64.35 206.89
20-Jan-2018 17:50 17.97 1,374.50 1,370.23 3.32 0.68 678.06 97.15 64.35 206.87
20-Jan-2018 17:45 17.98 1,375.55 1,371.29 3.30 0.68 678.62 97.14 64.36 206.85
20-Jan-2018 17:40 17.99 1,378.21 1,373.95 3.29 0.68 679.43 97.05 64.38 206.69
20-Jan-2018 17:30 18.00 1,383.37 1,379.12 3.29 0.69 682.03 97.39 64.40 207.30
20-Jan-2018 17:20 18.00 1,388.81 1,384.54 3.29 0.69 685.17 97.36 64.40 207.25
20-Jan-2018 17:10 18.01 1,396.97 1,392.69 3.30 0.69 689.02 97.41 64.42 207.34
20-Jan-2018 17:05 18.02 1,397.27 1,393.00 3.29 0.69 689.46 97.76 64.44 207.97
20-Jan-2018 16:55 18.02 1,401.08 1,396.81 3.30 0.69 691.02 97.51 64.44 207.52
20-Jan-2018 16:50 18.03 1,401.21 1,396.95 3.30 0.69 690.40 97.64 64.45 207.75
20-Jan-2018 16:40 18.06 1,404.22 1,400.00 3.32 0.70 692.63 97.67 64.51 207.81
20-Jan-2018 16:35 18.07 1,407.71 1,403.49 3.35 0.70 690.66 97.47 64.53 207.45
20-Jan-2018 16:30 18.07 1,409.69 1,405.47 3.37 0.70 690.90 97.38 64.53 207.28
20-Jan-2018 16:25 18.08 1,413.30 1,409.08 3.37 0.70 692.91 97.50 64.54 207.50
20-Jan-2018 16:20 18.08 1,415.70 1,411.48 3.40 0.70 694.09 97.50 64.54 207.50
20-Jan-2018 16:10 18.08 1,419.71 1,415.49 3.43 0.70 695.61 97.65 64.54 207.77
20-Jan-2018 16:05 18.08 1,420.91 1,416.67 3.43 0.70 695.95 97.72 64.54 207.90
20-Jan-2018 15:55 18.06 1,428.74 1,424.44 3.45 0.71 696.81 97.76 64.51 207.97
20-Jan-2018 15:50 18.05 1,433.01 1,428.69 3.47 0.71 698.18 97.72 64.49 207.90
20-Jan-2018 15:45 18.05 1,434.83 1,430.49 3.48 0.71 699.27 97.75 64.49 207.95
20-Jan-2018 15:40 18.03 1,436.84 1,432.47 3.49 0.71 700.24 97.75 64.45 207.95
20-Jan-2018 15:35 18.03 1,436.00 1,431.63 3.53 0.71 699.63 97.89 64.45 208.20
20-Jan-2018 15:30 18.02 1,438.66 1,434.28 3.55 0.71 701.38 97.67 64.44 207.81
20-Jan-2018 15:20 18.02 1,443.84 1,439.44 3.60 0.72 703.34 97.70 64.44 207.86
20-Jan-2018 15:10 18.05 1,449.07 1,444.70 3.63 0.72 706.17 97.73 64.49 207.91
20-Jan-2018 15:05 18.06 1,455.09 1,450.72 3.66 0.72 708.58 97.62 64.51 207.72
20-Jan-2018 14:55 18.08 1,457.41 1,453.08 3.68 0.72 709.70 97.79 64.54 208.02
20-Jan-2018 14:50 18.08 1,457.51 1,453.17 3.71 0.72 710.47 97.69 64.54 207.84
20-Jan-2018 14:45 18.08 1,459.63 1,455.28 3.75 0.72 710.98 97.66 64.54 207.79
20-Jan-2018 14:40 18.09 1,458.72 1,454.39 3.80 0.72 710.03 97.60 64.56 207.68
20-Jan-2018 14:35 18.12 1,457.77 1,453.49 3.82 0.72 714.57 97.46 64.62 207.43
20-Jan-2018 14:25 18.12 1,456.52 1,452.25 3.85 0.72 713.91 97.50 64.62 207.50
20-Jan-2018 14:20 18.07 1,461.71 1,457.33 3.92 0.73 716.24 97.55 64.53 207.59
20-Jan-2018 14:15 18.04 1,460.72 1,456.29 3.97 0.73 715.97 97.67 64.47 207.81
20-Jan-2018 14:05 17.96 1,458.17 1,453.62 3.98 0.72 714.45 97.80 64.33 208.04
20-Jan-2018 13:55 17.84 1,457.58 1,452.83 4.09 0.72 714.47 97.72 64.11 207.90
20-Jan-2018 13:50 17.83 1,447.58 1,442.84 4.13 0.72 713.62 97.65 64.09 207.77
20-Jan-2018 13:45 17.83 1,448.19 1,443.45 4.17 0.72 713.88 97.60 64.09 207.68
20-Jan-2018 13:40 17.83 1,447.06 1,442.32 4.19 0.72 712.55 97.62 64.09 207.72
20-Jan-2018 13:35 17.82 1,449.61 1,444.84 4.20 0.72 714.58 97.61 64.08 207.70
20-Jan-2018 13:25 17.80 1,445.07 1,440.29 4.20 0.72 711.86 97.90 64.04 208.22
20-Jan-2018 13:20 17.79 1,453.16 1,448.33 4.21 0.72 707.92 98.05 64.02 208.49
20-Jan-2018 13:15 17.82 1,453.26 1,448.48 4.22 0.72 708.23 98.25 64.08 208.85
20-Jan-2018 13:05 17.80 1,447.24 1,442.44 4.21 0.72 705.60 98.36 64.04 209.05
20-Jan-2018 13:00 17.79 1,450.64 1,445.82 4.21 0.72 707.71 98.45 64.02 209.21
20-Jan-2018 12:55 17.81 1,448.00 1,443.21 4.21 0.72 706.18 98.47 64.06 209.25
20-Jan-2018 12:45 17.80 1,448.89 1,444.08 4.20 0.72 706.11 98.68 64.04 209.62
20-Jan-2018 12:40 17.79 1,444.93 1,440.12 4.22 0.72 704.69 98.52 64.02 209.34
20-Jan-2018 12:35 17.79 1,441.83 1,437.04 4.24 0.72 702.98 98.45 64.02 209.21
20-Jan-2018 12:30 17.79 1,442.25 1,437.46 4.24 0.72 702.43 98.54 64.02 209.37
20-Jan-2018 12:25 17.79 1,439.87 1,435.07 4.23 0.71 701.98 98.47 64.02 209.25
20-Jan-2018 12:20 17.78 1,436.65 1,431.85 4.21 0.71 700.13 98.35 64.00 209.03
20-Jan-2018 12:15 17.78 1,435.12 1,430.32 4.22 0.71 699.72 98.53 64.00 209.35
20-Jan-2018 12:05 17.76 1,433.82 1,428.99 4.27 0.71 703.07 98.34 63.97 209.01
20-Jan-2018 11:55 17.73 1,428.76 1,423.90 4.24 0.71 700.04 98.53 63.91 209.35
20-Jan-2018 11:50 17.73 1,427.24 1,422.39 4.19 0.71 699.75 98.47 63.91 209.25
20-Jan-2018 11:45 17.72 1,427.02 1,422.15 4.16 0.71 698.94 98.55 63.90 209.39
20-Jan-2018 11:40 17.71 1,416.20 1,411.36 4.20 0.70 694.62 98.60 63.88 209.48
20-Jan-2018 11:35 17.71 1,419.37 1,414.51 4.26 0.70 695.98 98.62 63.88 209.52
20-Jan-2018 11:25 17.71 1,409.29 1,404.48 4.25 0.70 694.67 98.87 63.88 209.97
20-Jan-2018 11:20 17.71 1,406.04 1,401.23 4.26 0.70 693.45 98.69 63.88 209.64
20-Jan-2018 11:15 17.71 1,405.95 1,401.14 4.25 0.70 692.77 98.93 63.88 210.07
20-Jan-2018 11:05 17.71 1,404.98 1,400.17 4.23 0.70 692.73 98.90 63.88 210.02
20-Jan-2018 10:55 17.70 1,398.63 1,393.82 4.15 0.69 689.81 98.75 63.86 209.75
20-Jan-2018 10:45 17.67 1,393.84 1,389.00 4.10 0.69 687.43 98.36 63.81 209.05
20-Jan-2018 10:40 17.63 1,385.82 1,380.93 4.06 0.69 683.68 98.63 63.73 209.53
20-Jan-2018 10:35 17.60 1,382.55 1,377.62 4.05 0.69 681.78 98.78 63.68 209.80
20-Jan-2018 10:30 17.58 1,379.88 1,374.93 4.05 0.68 680.03 98.93 63.64 210.07
20-Jan-2018 10:20 17.56 1,374.60 1,369.63 4.07 0.68 676.72 99.09 63.61 210.36
20-Jan-2018 10:15 17.51 1,364.18 1,359.17 4.05 0.68 672.70 98.88 63.52 209.98
20-Jan-2018 10:10 17.48 1,360.58 1,355.53 4.00 0.67 670.91 98.78 63.46 209.80
20-Jan-2018 10:00 17.40 1,353.69 1,348.53 4.01 0.67 663.49 99.00 63.32 210.20
20-Jan-2018 09:55 17.36 1,350.68 1,345.46 4.01 0.67 662.01 98.98 63.25 210.16
20-Jan-2018 09:50 17.31 1,342.46 1,337.19 4.00 0.66 658.24 98.74 63.16 209.73
20-Jan-2018 09:45 17.26 1,334.70 1,329.35 3.95 0.66 654.86 98.87 63.07 209.97
20-Jan-2018 09:40 17.18 1,331.52 1,326.06 3.91 0.66 653.00 99.01 62.92 210.22
20-Jan-2018 09:30 17.13 1,327.70 1,322.15 3.87 0.66 651.03 98.89 62.83 210.00
20-Jan-2018 09:20 17.02 1,320.65 1,314.94 3.83 0.66 647.41 98.84 62.64 209.91
20-Jan-2018 09:15 17.00 1,326.51 1,320.73 3.73 0.65 646.62 99.50 62.60 211.10
20-Jan-2018 09:10 16.99 1,327.28 1,321.48 3.71 0.65 647.19 99.52 62.58 211.14
20-Jan-2018 09:05 16.98 1,324.12 1,318.32 3.73 0.65 645.66 99.40 62.56 210.92
20-Jan-2018 08:55 16.97 1,326.07 1,320.25 3.70 0.65 646.40 100.28 62.55 212.50
20-Jan-2018 08:50 16.97 1,325.47 1,319.64 3.68 0.65 646.20 100.26 62.55 212.47
20-Jan-2018 08:45 16.95 1,322.57 1,316.72 3.66 0.65 644.91 100.14 62.51 212.25
20-Jan-2018 08:40 16.94 1,318.68 1,312.82 3.69 0.65 643.02 99.87 62.49 211.77
20-Jan-2018 08:35 16.94 1,306.72 1,300.91 3.68 0.64 637.79 100.18 62.49 212.32
20-Jan-2018 08:30 16.93 1,288.59 1,282.85 3.66 0.63 627.84 100.30 62.47 212.54
20-Jan-2018 08:25 16.91 1,292.88 1,287.09 3.59 0.64 630.86 100.34 62.44 212.61
20-Jan-2018 08:15 16.91 1,297.03 1,291.21 3.56 0.64 633.15 100.50 62.44 212.90
20-Jan-2018 08:10 16.90 1,329.37 1,323.39 3.54 0.66 647.80 100.40 62.42 212.72
20-Jan-2018 08:05 16.89 1,330.56 1,324.57 3.50 0.66 652.14 101.20 62.40 214.16
20-Jan-2018 07:55 16.89 1,330.65 1,324.64 3.48 0.66 651.98 101.46 62.40 214.63
20-Jan-2018 07:50 16.89 1,329.88 1,323.87 3.45 0.66 652.23 100.66 62.40 213.19
20-Jan-2018 07:45 16.89 1,333.23 1,327.21 3.43 0.66 653.41 100.74 62.40 213.33
20-Jan-2018 07:35 16.93 1,333.86 1,327.93 3.43 0.66 653.76 101.38 62.47 214.48
20-Jan-2018 07:30 16.94 1,333.18 1,327.26 3.42 0.66 653.09 101.13 62.49 214.03
20-Jan-2018 07:25 16.93 1,331.28 1,325.35 3.42 0.65 653.09 101.30 62.47 214.34
20-Jan-2018 07:20 16.91 1,323.49 1,317.56 3.42 0.65 652.03 101.05 62.44 213.89
20-Jan-2018 07:15 16.90 1,321.37 1,315.42 3.37 0.65 651.39 99.95 62.42 211.91
20-Jan-2018 07:05 16.90 1,320.60 1,314.66 3.38 0.65 650.55 99.76 62.42 211.57
20-Jan-2018 07:00 16.92 1,320.78 1,314.87 3.34 0.65 649.80 100.07 62.46 212.13
20-Jan-2018 06:50 16.95 1,327.68 1,321.81 3.31 0.65 647.02 100.50 62.51 212.90
20-Jan-2018 06:45 16.95 1,328.97 1,323.09 3.25 0.66 647.81 100.31 62.51 212.56
20-Jan-2018 06:40 16.94 1,336.20 1,330.27 3.21 0.66 651.95 100.74 62.49 213.33
20-Jan-2018 06:35 16.90 1,335.56 1,329.55 3.19 0.66 651.60 100.31 62.42 212.56
20-Jan-2018 06:25 16.89 1,337.38 1,331.35 3.17 0.66 652.27 99.80 62.40 211.64
20-Jan-2018 06:20 16.89 1,335.47 1,329.44 3.15 0.66 651.30 99.36 62.40 210.85
20-Jan-2018 06:10 16.90 1,338.16 1,332.14 3.14 0.66 652.02 99.33 62.42 210.79
20-Jan-2018 06:05 16.90 1,341.39 1,335.36 3.14 0.66 653.79 99.49 62.42 211.08
20-Jan-2018 05:55 16.90 1,347.69 1,341.63 3.11 0.67 656.04 99.42 62.42 210.96
20-Jan-2018 05:50 16.91 1,350.26 1,344.22 3.11 0.67 658.18 99.56 62.44 211.21
20-Jan-2018 05:45 16.91 1,352.12 1,346.06 3.10 0.67 659.39 99.59 62.44 211.26
20-Jan-2018 05:40 16.93 1,353.74 1,347.71 3.09 0.67 660.43 99.51 62.47 211.12
20-Jan-2018 05:35 16.94 1,355.62 1,349.60 3.09 0.67 664.29 99.34 62.49 210.81
20-Jan-2018 05:30 16.96 1,357.52 1,351.54 3.10 0.67 665.84 99.37 62.53 210.87
20-Jan-2018 05:25 16.97 1,360.40 1,354.42 3.09 0.67 665.89 99.57 62.55 211.23
20-Jan-2018 05:20 16.97 1,362.20 1,356.21 3.09 0.67 668.28 99.82 62.55 211.68
20-Jan-2018 05:10 16.98 1,366.20 1,360.22 3.10 0.68 669.40 99.72 62.56 211.50
20-Jan-2018 05:05 16.99 1,366.48 1,360.51 3.11 0.68 669.98 99.64 62.58 211.35
20-Jan-2018 04:55 17.00 1,359.45 1,353.53 3.13 0.67 670.29 99.27 62.60 210.69
20-Jan-2018 04:50 16.99 1,362.69 1,356.74 3.13 0.67 671.41 99.24 62.58 210.63
20-Jan-2018 04:45 17.00 1,365.68 1,359.73 3.16 0.67 673.39 98.90 62.60 210.02
20-Jan-2018 04:40 17.00 1,368.41 1,362.44 3.15 0.68 674.69 99.24 62.60 210.63
20-Jan-2018 04:35 17.01 1,366.33 1,360.39 3.17 0.68 674.61 99.07 62.62 210.33
20-Jan-2018 04:30 17.00 1,368.32 1,362.36 3.18 0.68 674.74 98.92 62.60 210.06
20-Jan-2018 04:25 17.00 1,368.69 1,362.73 3.19 0.68 674.43 98.96 62.60 210.13
20-Jan-2018 04:20 17.01 1,372.08 1,366.12 3.19 0.68 676.33 98.93 62.62 210.07
20-Jan-2018 04:10 17.03 1,375.51 1,369.58 3.20 0.68 678.26 98.85 62.65 209.93
20-Jan-2018 04:05 17.04 1,375.33 1,369.41 3.22 0.68 678.41 98.79 62.67 209.82
20-Jan-2018 03:55 17.06 1,378.78 1,372.89 3.23 0.68 679.48 98.74 62.71 209.73
20-Jan-2018 03:50 17.07 1,385.49 1,379.58 3.26 0.69 682.99 98.84 62.73 209.91
20-Jan-2018 03:45 17.07 1,388.03 1,382.13 3.26 0.69 684.76 98.71 62.73 209.68
20-Jan-2018 03:40 17.09 1,390.32 1,384.44 3.29 0.69 685.86 99.06 62.76 210.31
20-Jan-2018 03:35 17.10 1,394.69 1,388.81 3.31 0.69 683.63 98.84 62.78 209.91
20-Jan-2018 03:30 17.10 1,395.46 1,389.58 3.33 0.69 683.92 99.09 62.78 210.36
20-Jan-2018 03:25 17.12 1,397.39 1,391.53 3.35 0.69 685.14 98.95 62.82 210.11
20-Jan-2018 03:20 17.12 1,401.90 1,396.03 3.37 0.69 687.12 98.84 62.82 209.91
20-Jan-2018 03:10 17.14 1,408.67 1,402.80 3.41 0.70 691.30 99.00 62.85 210.20
20-Jan-2018 03:05 17.16 1,409.13 1,403.32 3.42 0.70 690.91 98.99 62.89 210.18
20-Jan-2018 02:55 17.21 1,425.15 1,419.36 3.45 0.71 694.65 99.04 62.98 210.27
20-Jan-2018 02:50 17.23 1,426.82 1,421.06 3.49 0.71 694.93 98.80 63.01 209.84
20-Jan-2018 02:45 17.27 1,427.85 1,422.16 3.52 0.71 696.29 98.71 63.09 209.68
20-Jan-2018 02:40 17.29 1,429.71 1,424.05 3.55 0.71 696.41 98.88 63.12 209.98
20-Jan-2018 02:35 17.30 1,432.76 1,427.11 3.59 0.71 697.65 98.80 63.14 209.84
20-Jan-2018 02:30 17.33 1,436.47 1,430.85 3.61 0.71 699.35 98.76 63.19 209.77
20-Jan-2018 02:20 17.36 1,441.78 1,436.21 3.66 0.71 702.65 98.74 63.25 209.73
20-Jan-2018 02:15 17.40 1,444.48 1,438.97 3.73 0.72 704.25 98.72 63.32 209.70
20-Jan-2018 02:05 17.32 1,445.30 1,439.64 3.75 0.72 704.36 98.65 63.18 209.57
20-Jan-2018 02:00 17.24 1,445.79 1,439.96 3.79 0.72 704.66 98.67 63.03 209.61
20-Jan-2018 01:50 17.30 1,450.66 1,444.94 3.81 0.72 706.85 98.79 63.14 209.82
20-Jan-2018 01:45 17.36 1,455.15 1,449.53 3.81 0.72 709.18 98.59 63.25 209.46
20-Jan-2018 01:40 17.51 1,457.64 1,452.28 3.85 0.72 714.03 98.69 63.52 209.64
20-Jan-2018 01:35 17.63 1,459.95 1,454.81 3.87 0.72 715.37 98.73 63.73 209.71
20-Jan-2018 01:30 17.81 1,460.92 1,456.10 3.91 0.73 716.06 98.52 64.06 209.34
20-Jan-2018 01:25 17.81 1,460.92 1,456.10 3.92 0.73 716.06 98.92 64.06 210.06
20-Jan-2018 01:20 17.81 1,461.54 1,456.72 3.94 0.73 716.63 98.87 64.06 209.97
20-Jan-2018 01:10 17.82 1,463.38 1,458.56 3.99 0.73 717.22 98.91 64.08 210.04
20-Jan-2018 01:05 17.83 1,463.53 1,458.73 4.01 0.73 716.87 98.83 64.09 209.89
20-Jan-2018 01:00 17.82 1,456.22 1,451.44 4.05 0.72 714.07 98.81 64.08 209.86
20-Jan-2018 00:50 17.82 1,449.70 1,444.93 4.06 0.72 714.67 98.80 64.08 209.84
20-Jan-2018 00:45 17.82 1,448.14 1,443.37 4.08 0.72 713.64 98.95 64.08 210.11
20-Jan-2018 00:35 17.85 1,444.75 1,440.06 4.11 0.72 712.22 99.07 64.13 210.33
20-Jan-2018 00:30 17.87 1,445.32 1,440.65 4.13 0.72 711.99 98.88 64.17 209.98
20-Jan-2018 00:25 17.87 1,448.77 1,444.10 4.15 0.72 706.04 98.81 64.17 209.86
20-Jan-2018 00:20 17.87 1,443.77 1,439.10 4.20 0.72 703.37 98.67 64.17 209.61
20-Jan-2018 00:10 17.87 1,442.64 1,437.98 4.22 0.72 702.82 98.82 64.17 209.88
20-Jan-2018 00:05 17.87 1,441.09 1,436.44 4.25 0.72 702.61 98.80 64.17 209.84
20-Jan-2018 00:00 17.87 1,442.12 1,437.46 4.26 0.72 703.32 98.82 64.17 209.88
19-Jan-2018 23:50 17.87 1,440.67 1,436.01 4.28 0.72 702.57 98.68 64.17 209.62
19-Jan-2018 23:45 17.86 1,439.73 1,435.07 4.26 0.71 701.41 98.65 64.15 209.57
19-Jan-2018 23:40 17.86 1,437.68 1,433.02 4.26 0.71 700.66 98.65 64.15 209.57
19-Jan-2018 23:35 17.86 1,435.91 1,431.25 4.26 0.71 700.26 98.71 64.15 209.68
19-Jan-2018 23:30 17.86 1,436.42 1,431.76 4.25 0.71 699.81 98.58 64.15 209.44
19-Jan-2018 23:25 17.86 1,432.84 1,428.19 4.26 0.71 697.87 98.48 64.15 209.26
19-Jan-2018 23:20 17.84 1,430.67 1,426.01 4.27 0.71 697.61 98.38 64.11 209.08
19-Jan-2018 23:15 17.83 1,429.01 1,424.34 4.26 0.71 696.22 98.57 64.09 209.43
19-Jan-2018 23:10 17.81 1,427.32 1,422.61 4.25 0.71 699.29 98.57 64.06 209.43
19-Jan-2018 23:05 17.81 1,425.89 1,421.19 4.25 0.71 698.69 98.64 64.06 209.55
19-Jan-2018 23:00 17.79 1,420.02 1,415.29 4.24 0.70 696.21 98.61 64.02 209.50
19-Jan-2018 22:50 17.78 1,420.47 1,415.73 4.24 0.70 692.57 98.61 64.00 209.50
19-Jan-2018 22:45 17.75 1,414.83 1,410.06 4.22 0.70 693.75 98.73 63.95 209.71
19-Jan-2018 22:35 17.73 1,411.30 1,406.50 4.21 0.70 691.73 98.66 63.91 209.59
19-Jan-2018 22:30 17.71 1,406.35 1,401.55 4.20 0.69 689.31 98.48 63.88 209.26
19-Jan-2018 22:25 17.69 1,392.34 1,387.53 4.20 0.69 686.21 98.76 63.84 209.77
19-Jan-2018 22:20 17.66 1,388.07 1,383.23 4.18 0.69 684.05 98.58 63.79 209.44
19-Jan-2018 22:15 17.64 1,379.71 1,374.87 4.20 0.68 680.00 98.58 63.75 209.44
19-Jan-2018 22:05 17.62 1,376.03 1,371.17 4.18 0.68 677.94 98.60 63.72 209.48
19-Jan-2018 21:55 17.59 1,371.04 1,366.15 4.14 0.68 675.46 98.72 63.66 209.70
19-Jan-2018 21:50 17.57 1,365.83 1,360.92 4.11 0.68 673.93 98.65 63.63 209.57
19-Jan-2018 21:45 17.55 1,361.04 1,356.10 4.10 0.67 671.32 98.69 63.59 209.64
19-Jan-2018 21:40 17.52 1,357.73 1,352.77 4.07 0.67 669.09 98.79 63.54 209.82
19-Jan-2018 21:35 17.50 1,353.09 1,348.11 4.05 0.67 666.97 98.54 63.50 209.37
19-Jan-2018 21:30 17.46 1,346.86 1,341.83 4.03 0.67 663.65 98.75 63.43 209.75
19-Jan-2018 21:20 17.36 1,336.52 1,331.35 4.00 0.66 659.21 98.90 63.25 210.02
19-Jan-2018 21:15 17.25 1,326.81 1,321.48 3.99 0.65 650.14 98.79 63.05 209.82
19-Jan-2018 21:05 17.19 1,323.09 1,317.68 3.98 0.65 648.53 98.77 62.94 209.79
19-Jan-2018 20:55 17.10 1,317.79 1,312.23 3.95 0.65 646.13 98.65 62.78 209.57
19-Jan-2018 20:50 17.08 1,318.63 1,313.04 3.94 0.65 646.71 98.61 62.74 209.50
19-Jan-2018 20:45 17.09 1,318.38 1,312.81 3.92 0.65 646.34 98.70 62.76 209.66
19-Jan-2018 20:40 17.10 1,316.86 1,311.31 3.89 0.65 645.43 98.74 62.78 209.73
19-Jan-2018 20:30 17.10 1,314.75 1,309.21 3.85 0.65 644.39 99.02 62.78 210.24
19-Jan-2018 20:25 17.09 1,320.08 1,314.49 3.82 0.65 643.16 98.81 62.76 209.86
19-Jan-2018 20:20 17.08 1,321.26 1,315.65 3.76 0.65 644.02 98.78 62.74 209.80
19-Jan-2018 20:10 17.08 1,320.84 1,315.23 3.73 0.65 643.40 98.89 62.74 210.00
19-Jan-2018 20:05 17.07 1,318.97 1,313.36 3.68 0.65 643.32 98.90 62.73 210.02
19-Jan-2018 20:00 17.07 1,315.17 1,309.57 3.67 0.65 641.93 98.75 62.73 209.75
19-Jan-2018 19:50 17.07 1,314.50 1,308.89 3.66 0.65 641.23 98.86 62.73 209.95
19-Jan-2018 19:40 17.07 1,310.55 1,304.98 3.63 0.65 639.03 99.01 62.73 210.22
19-Jan-2018 19:35 17.08 1,313.32 1,307.74 3.63 0.65 639.60 98.69 62.74 209.64
19-Jan-2018 19:30 17.08 1,314.67 1,309.08 3.63 0.65 640.82 98.79 62.74 209.82
19-Jan-2018 19:20 17.08 1,310.89 1,305.32 3.58 0.65 639.07 98.80 62.74 209.84
19-Jan-2018 19:10 17.07 1,310.97 1,305.40 3.55 0.65 639.56 98.87 62.73 209.97
19-Jan-2018 19:05 17.07 1,309.97 1,304.38 3.54 0.65 642.05 98.88 62.73 209.98
19-Jan-2018 18:55 17.07 1,306.22 1,300.65 3.54 0.64 639.85 98.78 62.73 209.80
19-Jan-2018 18:50 17.07 1,302.83 1,297.27 3.52 0.64 638.34 98.68 62.73 209.62
19-Jan-2018 18:45 17.07 1,302.41 1,296.86 3.51 0.64 638.30 98.73 62.73 209.71
19-Jan-2018 18:35 17.11 1,302.82 1,297.34 3.45 0.64 638.34 98.80 62.80 209.84
19-Jan-2018 18:30 17.10 1,305.47 1,299.97 3.46 0.64 640.21 98.88 62.78 209.98
19-Jan-2018 18:25 17.11 1,299.52 1,294.05 3.47 0.64 640.54 98.98 62.80 210.16
19-Jan-2018 18:20 17.11 1,302.41 1,296.93 3.42 0.64 642.25 98.96 62.80 210.13
19-Jan-2018 18:15 17.11 1,300.92 1,295.46 3.39 0.64 640.86 98.86 62.80 209.95
19-Jan-2018 18:10 17.13 1,301.66 1,296.22 3.37 0.64 641.23 98.84 62.83 209.91
19-Jan-2018 18:05 17.14 1,301.17 1,295.76 3.37 0.64 641.23 99.10 62.85 210.38
19-Jan-2018 17:55 17.16 1,310.73 1,305.31 3.37 0.65 638.38 98.92 62.89 210.06
19-Jan-2018 17:45 17.20 1,313.17 1,307.81 3.33 0.65 640.29 98.89 62.96 210.00
19-Jan-2018 17:40 17.21 1,314.69 1,309.36 3.33 0.65 640.91 99.04 62.98 210.27
19-Jan-2018 17:35 17.22 1,316.05 1,310.72 3.33 0.65 641.15 98.94 63.00 210.09
19-Jan-2018 17:30 17.24 1,319.44 1,314.13 3.32 0.65 643.00 99.09 63.03 210.36
19-Jan-2018 17:20 17.26 1,322.44 1,317.16 3.29 0.65 644.87 99.34 63.07 210.81
19-Jan-2018 17:10 17.29 1,329.60 1,324.34 3.29 0.66 647.67 99.02 63.12 210.24
19-Jan-2018 17:05 17.30 1,332.46 1,327.20 3.28 0.66 649.26 99.15 63.14 210.47
19-Jan-2018 16:55 17.31 1,335.00 1,329.75 3.24 0.66 650.96 99.35 63.16 210.83
19-Jan-2018 16:50 17.32 1,338.41 1,333.16 3.21 0.66 652.36 99.12 63.18 210.42
19-Jan-2018 16:45 17.32 1,340.00 1,334.75 3.18 0.66 653.30 99.58 63.18 211.24
19-Jan-2018 16:40 17.33 1,344.60 1,339.34 3.19 0.66 658.98 99.23 63.19 210.61
19-Jan-2018 16:35 17.35 1,344.43 1,339.21 3.21 0.66 659.60 99.43 63.23 210.97
19-Jan-2018 16:30 17.36 1,351.04 1,345.82 3.27 0.67 662.36 99.28 63.25 210.70
19-Jan-2018 16:20 17.43 1,358.15 1,353.03 3.30 0.67 665.54 99.34 63.37 210.81
19-Jan-2018 16:15 17.46 1,361.73 1,356.65 3.31 0.67 667.25 99.19 63.43 210.54
19-Jan-2018 16:10 17.48 1,364.14 1,359.09 3.34 0.67 668.43 99.22 63.46 210.60
19-Jan-2018 16:05 17.50 1,363.44 1,358.42 3.35 0.67 668.85 99.66 63.50 211.39
19-Jan-2018 16:00 17.54 1,360.56 1,355.61 3.37 0.67 670.45 99.63 63.57 211.33
19-Jan-2018 15:55 17.55 1,362.32 1,357.39 3.37 0.67 671.78 99.70 63.59 211.46
19-Jan-2018 15:45 17.56 1,357.87 1,352.97 3.37 0.67 669.57 99.53 63.61 211.15
19-Jan-2018 15:35 17.59 1,365.68 1,360.79 3.34 0.68 673.45 99.50 63.66 211.10
19-Jan-2018 15:30 17.58 1,367.32 1,362.42 3.35 0.68 674.26 99.65 63.64 211.37
19-Jan-2018 15:20 17.56 1,372.94 1,367.99 3.39 0.68 677.05 99.25 63.61 210.65
19-Jan-2018 15:15 17.52 1,378.55 1,373.51 3.42 0.68 679.64 99.39 63.54 210.90
19-Jan-2018 15:10 17.50 1,380.75 1,375.66 3.45 0.68 680.45 99.70 63.50 211.46
19-Jan-2018 15:00 17.46 1,383.20 1,378.03 3.52 0.68 681.85 99.88 63.43 211.78
19-Jan-2018 14:55 17.44 1,382.89 1,377.68 3.54 0.68 681.23 100.20 63.39 212.36
19-Jan-2018 14:50 17.41 1,384.80 1,379.54 3.52 0.69 682.64 100.26 63.34 212.47
19-Jan-2018 14:45 17.38 1,386.16 1,380.84 3.54 0.69 679.45 100.57 63.28 213.03
19-Jan-2018 14:40 17.35 1,389.12 1,383.73 3.58 0.69 680.85 100.63 63.23 213.13
19-Jan-2018 14:35 17.33 1,391.72 1,386.29 3.60 0.69 682.37 99.96 63.19 211.93
19-Jan-2018 14:30 17.31 1,396.81 1,391.32 3.62 0.69 684.58 99.73 63.16 211.51
19-Jan-2018 14:25 17.30 1,399.95 1,394.43 3.62 0.69 686.21 101.10 63.14 213.98
19-Jan-2018 14:15 17.27 1,404.79 1,399.19 3.62 0.70 688.54 99.00 63.09 210.20
19-Jan-2018 14:05 17.27 1,406.90 1,401.29 3.65 0.70 689.06 98.81 63.09 209.86
19-Jan-2018 13:55 17.26 1,419.78 1,414.11 3.77 0.70 691.52 98.79 63.07 209.82
19-Jan-2018 13:45 17.25 1,426.18 1,420.46 3.80 0.71 694.42 98.83 63.05 209.89
19-Jan-2018 13:40 17.24 1,429.44 1,423.69 3.83 0.71 695.72 98.97 63.03 210.15
19-Jan-2018 13:30 17.14 1,434.78 1,428.80 3.87 0.71 699.28 98.98 62.85 210.16
19-Jan-2018 13:20 17.16 1,439.09 1,433.13 3.93 0.71 700.92 98.93 62.89 210.07
19-Jan-2018 13:15 17.25 1,439.64 1,433.87 3.92 0.71 701.14 98.97 63.05 210.15
18-Jan-2018 03:40 17.77 1,374.15 1,369.55 3.35 0.68 677.48 99.48 63.99 211.06
18-Jan-2018 03:35 17.78 1,370.33 1,365.75 3.34 0.68 675.00 99.97 64.00 211.95
18-Jan-2018 03:00 17.84 1,393.27 1,388.72 3.41 0.69 678.67 99.44 64.11 210.99
18-Jan-2018 02:45 17.92 1,400.15 1,395.71 3.47 0.69 682.23 99.64 64.26 211.35
18-Jan-2018 02:30 18.02 1,405.99 1,401.70 3.49 0.70 684.86 100.17 64.44 212.31
18-Jan-2018 02:20 18.09 1,412.61 1,408.41 3.55 0.70 688.45 99.42 64.56 210.96
18-Jan-2018 01:55 18.28 1,421.43 1,417.51 3.69 0.71 696.25 99.84 64.90 211.71
18-Jan-2018 01:30 18.45 1,433.55 1,429.85 3.81 0.71 702.64 99.48 65.21 211.06
18-Jan-2018 01:20 18.52 1,430.58 1,427.00 3.82 0.71 705.52 99.61 65.34 211.30
18-Jan-2018 00:55 18.73 1,441.62 1,438.32 3.94 0.72 711.07 99.28 65.71 210.70
18-Jan-2018 00:15 19.13 1,449.31 1,446.56 4.14 0.72 714.62 99.37 66.43 210.87
18-Jan-2018 00:05 19.24 1,442.22 1,439.63 4.18 0.72 706.69 99.57 66.63 211.23
17-Jan-2018 23:30 19.37 1,437.97 1,435.54 4.22 0.72 704.60 99.57 66.87 211.23
17-Jan-2018 23:20 19.41 1,444.20 1,441.80 4.28 0.72 703.99 100.04 66.94 212.07
17-Jan-2018 23:15 19.43 1,442.35 1,439.98 4.29 0.72 703.09 99.96 66.97 211.93
17-Jan-2018 23:05 19.42 1,438.89 1,436.52 4.29 0.72 700.85 100.27 66.96 212.49
17-Jan-2018 21:05 19.60 1,393.00 1,390.92 4.25 0.69 686.48 99.54 67.28 211.17
17-Jan-2018 21:00 19.60 1,391.81 1,389.73 4.24 0.69 686.14 99.82 67.28 211.68
17-Jan-2018 20:50 19.60 1,388.40 1,386.33 4.23 0.69 684.25 99.95 67.28 211.91
17-Jan-2018 20:45 19.60 1,386.40 1,384.34 4.21 0.69 682.97 99.62 67.28 211.32
17-Jan-2018 20:40 19.61 1,389.21 1,387.14 4.19 0.69 677.30 99.69 67.30 211.44
17-Jan-2018 20:35 19.60 1,385.81 1,383.75 4.17 0.69 676.09 100.00 67.28 212.00
17-Jan-2018 20:30 19.60 1,381.94 1,379.88 4.16 0.69 673.53 99.83 67.28 211.69
17-Jan-2018 20:25 19.58 1,375.21 1,373.14 4.15 0.68 670.23 99.72 67.24 211.50
17-Jan-2018 20:20 19.56 1,371.38 1,369.29 4.13 0.68 668.65 99.81 67.21 211.66
17-Jan-2018 20:10 19.55 1,368.05 1,365.95 4.10 0.68 667.04 99.99 67.19 211.98
17-Jan-2018 20:05 19.53 1,368.12 1,366.00 4.09 0.68 666.61 99.86 67.15 211.75
17-Jan-2018 19:55 19.50 1,362.88 1,360.73 4.07 0.68 664.49 99.81 67.10 211.66
17-Jan-2018 19:50 19.47 1,360.35 1,358.18 4.05 0.68 663.03 99.91 67.05 211.84
17-Jan-2018 19:40 19.39 1,356.82 1,354.55 4.00 0.67 661.33 99.90 66.90 211.82
17-Jan-2018 19:35 19.40 1,353.71 1,351.46 3.99 0.67 659.86 100.00 66.92 212.00
17-Jan-2018 19:25 19.41 1,350.04 1,347.81 3.97 0.67 658.23 99.76 66.94 211.57
17-Jan-2018 19:20 19.41 1,348.64 1,346.41 3.96 0.67 661.25 100.04 66.94 212.07
17-Jan-2018 19:10 19.40 1,352.67 1,350.43 3.93 0.67 662.58 99.82 66.92 211.68
17-Jan-2018 19:05 19.38 1,348.70 1,346.43 3.90 0.67 661.51 99.94 66.88 211.89
17-Jan-2018 19:00 19.38 1,349.26 1,346.99 3.88 0.67 661.09 99.83 66.88 211.69
17-Jan-2018 18:50 19.38 1,351.61 1,349.33 3.86 0.67 662.47 99.78 66.88 211.60
17-Jan-2018 18:45 19.42 1,353.07 1,350.84 3.82 0.67 663.51 99.92 66.96 211.86
17-Jan-2018 18:40 19.41 1,340.90 1,338.67 3.81 0.67 660.65 99.81 66.94 211.66
17-Jan-2018 18:35 19.38 1,348.32 1,346.05 3.79 0.67 663.67 99.86 66.88 211.75
17-Jan-2018 18:30 19.37 1,348.03 1,345.76 3.77 0.67 664.46 99.76 66.87 211.57
17-Jan-2018 18:25 19.38 1,346.45 1,344.19 3.75 0.67 663.35 99.94 66.88 211.89
17-Jan-2018 18:15 19.42 1,351.27 1,349.05 3.74 0.67 665.14 99.74 66.96 211.53
17-Jan-2018 18:10 19.39 1,352.00 1,349.75 3.72 0.67 665.96 99.85 66.90 211.73
17-Jan-2018 18:05 19.38 1,350.95 1,348.69 3.72 0.67 665.86 100.12 66.88 212.22
17-Jan-2018 18:00 19.40 1,352.29 1,350.04 3.69 0.67 666.34 99.94 66.92 211.89
17-Jan-2018 17:50 19.41 1,349.48 1,347.26 3.67 0.67 665.60 99.74 66.94 211.53
17-Jan-2018 17:45 19.43 1,355.16 1,352.94 3.61 0.67 668.37 99.60 66.97 211.28
17-Jan-2018 17:35 19.43 1,357.35 1,355.13 3.59 0.67 668.84 99.88 66.97 211.78
17-Jan-2018 17:30 19.45 1,357.75 1,355.55 3.58 0.67 669.43 99.62 67.01 211.32
17-Jan-2018 17:20 19.48 1,360.94 1,358.78 3.52 0.68 667.05 99.76 67.06 211.57
17-Jan-2018 17:10 19.50 1,364.13 1,361.99 3.51 0.68 668.90 99.90 67.10 211.82
17-Jan-2018 17:05 19.52 1,366.47 1,364.34 3.46 0.68 670.04 99.85 67.14 211.73
17-Jan-2018 16:55 19.54 1,366.88 1,364.77 3.43 0.68 669.96 99.71 67.17 211.48
17-Jan-2018 16:40 19.62 1,374.10 1,372.06 3.41 0.68 673.79 99.63 67.32 211.33
17-Jan-2018 16:35 19.67 1,381.67 1,379.69 3.40 0.69 673.50 99.79 67.41 211.62
17-Jan-2018 16:25 19.70 1,383.71 1,381.76 3.39 0.69 674.34 99.61 67.46 211.30
17-Jan-2018 16:20 19.74 1,380.51 1,378.60 3.37 0.69 673.02 99.84 67.53 211.71
17-Jan-2018 16:10 19.75 1,379.95 1,378.06 3.36 0.69 672.51 99.76 67.55 211.57
17-Jan-2018 16:05 19.78 1,380.19 1,378.32 3.37 0.69 672.43 99.86 67.60 211.75
17-Jan-2018 16:00 19.81 1,381.54 1,379.71 3.33 0.69 672.80 100.00 67.66 212.00
17-Jan-2018 15:55 19.82 1,382.75 1,380.93 3.31 0.69 673.67 100.10 67.68 212.18
17-Jan-2018 15:50 19.82 1,384.34 1,382.51 3.31 0.69 674.63 99.99 67.68 211.98
17-Jan-2018 15:45 19.82 1,385.15 1,383.33 3.30 0.69 675.31 99.93 67.68 211.87
17-Jan-2018 15:35 19.83 1,386.55 1,384.73 3.30 0.69 676.15 99.93 67.69 211.87
17-Jan-2018 15:30 19.83 1,390.38 1,388.56 3.32 0.69 676.88 100.11 67.69 212.20
17-Jan-2018 15:20 19.83 1,390.88 1,389.06 3.30 0.69 677.07 100.00 67.69 212.00
17-Jan-2018 15:10 19.82 1,394.89 1,393.05 3.30 0.69 680.24 99.91 67.68 211.84
17-Jan-2018 15:05 19.82 1,397.24 1,395.40 3.31 0.69 684.65 99.79 67.68 211.62
17-Jan-2018 14:55 19.81 1,398.03 1,396.18 3.31 0.70 685.24 99.84 67.66 211.71
17-Jan-2018 14:50 19.81 1,401.88 1,400.02 3.30 0.70 687.42 100.04 67.66 212.07
17-Jan-2018 14:45 19.79 1,402.27 1,400.39 3.29 0.70 687.02 99.90 67.62 211.82
17-Jan-2018 14:40 19.78 1,405.12 1,403.23 3.30 0.70 688.41 99.81 67.60 211.66
17-Jan-2018 14:35 19.77 1,404.47 1,402.57 3.28 0.70 688.90 99.86 67.59 211.75
17-Jan-2018 14:30 19.75 1,409.77 1,407.84 3.27 0.70 690.44 99.70 67.55 211.46
17-Jan-2018 14:25 19.73 1,410.63 1,408.67 3.29 0.70 691.42 99.74 67.51 211.53
17-Jan-2018 14:20 19.70 1,406.53 1,404.54 3.36 0.70 692.39 99.67 67.46 211.41
17-Jan-2018 14:10 19.68 1,412.07 1,410.06 3.36 0.70 694.36 99.52 67.42 211.14
17-Jan-2018 14:05 19.65 1,411.24 1,409.19 3.36 0.70 695.32 99.65 67.37 211.37
17-Jan-2018 13:55 19.57 1,416.84 1,414.69 3.40 0.70 693.90 99.59 67.23 211.26
17-Jan-2018 13:50 19.54 1,426.69 1,424.49 3.42 0.71 695.23 99.67 67.17 211.41
17-Jan-2018 13:45 19.51 1,427.94 1,425.70 3.42 0.71 695.54 99.69 67.12 211.44
17-Jan-2018 13:35 19.46 1,428.00 1,425.70 3.48 0.71 696.13 99.77 67.03 211.59
17-Jan-2018 13:30 19.43 1,435.31 1,432.96 3.51 0.71 699.46 99.63 66.97 211.33
17-Jan-2018 13:25 19.41 1,435.36 1,432.99 3.49 0.71 699.65 99.64 66.94 211.35
17-Jan-2018 13:20 19.39 1,436.03 1,433.64 3.54 0.71 699.94 99.55 66.90 211.19
17-Jan-2018 13:15 19.39 1,440.59 1,438.18 3.55 0.72 701.67 99.38 66.90 210.88
17-Jan-2018 13:10 19.39 1,442.00 1,439.59 3.56 0.72 702.92 99.52 66.90 211.14
17-Jan-2018 13:05 19.40 1,442.78 1,440.38 3.58 0.72 702.73 99.59 66.92 211.26
17-Jan-2018 13:00 19.41 1,442.59 1,440.20 3.60 0.72 702.85 99.48 66.94 211.06
17-Jan-2018 12:50 19.42 1,446.50 1,444.12 3.63 0.72 705.06 99.56 66.96 211.21
17-Jan-2018 12:45 19.43 1,442.35 1,439.98 3.72 0.72 703.09 99.43 66.97 210.97
17-Jan-2018 12:35 19.41 1,446.60 1,444.21 3.75 0.72 704.32 99.16 66.94 210.49
17-Jan-2018 12:30 19.41 1,444.73 1,442.34 3.77 0.72 707.66 99.08 66.94 210.34
17-Jan-2018 12:25 19.41 1,444.10 1,441.71 3.79 0.72 707.82 99.09 66.94 210.36
17-Jan-2018 12:20 19.42 1,446.50 1,444.12 3.84 0.72 709.00 99.09 66.96 210.36
17-Jan-2018 12:15 19.41 1,446.69 1,444.30 3.88 0.72 709.14 99.16 66.94 210.49
17-Jan-2018 12:10 19.41 1,445.62 1,443.23 3.91 0.72 708.52 99.03 66.94 210.25
17-Jan-2018 12:05 19.40 1,444.29 1,441.90 3.94 0.72 708.18 99.05 66.92 210.29
17-Jan-2018 12:00 19.38 1,447.23 1,444.80 3.94 0.72 708.83 98.98 66.88 210.16
17-Jan-2018 11:50 19.36 1,444.58 1,442.13 3.95 0.71 708.37 99.17 66.85 210.51
17-Jan-2018 11:45 19.35 1,437.39 1,434.94 3.94 0.72 708.47 99.43 66.83 210.97
17-Jan-2018 11:35 19.43 1,438.60 1,436.24 3.95 0.72 709.39 99.00 66.97 210.20
17-Jan-2018 11:30 19.42 1,437.82 1,435.46 3.95 0.72 708.38 99.16 66.96 210.49
17-Jan-2018 03:45 19.06 1,403.31 1,400.55 3.12 0.70 691.54 99.40 66.31 210.92
16-Jan-2018 23:40 19.48 1,444.45 1,442.15 3.93 0.72 703.28 99.72 67.06 211.50
16-Jan-2018 22:40 19.60 1,451.98 1,449.82 4.19 0.72 711.47 99.93 67.28 211.87
16-Jan-2018 22:30 19.61 1,451.24 1,449.08 4.23 0.72 711.33 100.00 67.30 212.00
16-Jan-2018 22:20 19.60 1,444.67 1,442.51 4.24 0.72 712.10 100.04 67.28 212.07
16-Jan-2018 21:25 19.73 1,439.64 1,437.64 4.37 0.72 709.35 100.10 67.51 212.18
16-Jan-2018 21:20 19.75 1,437.24 1,435.27 4.37 0.72 709.23 100.16 67.55 212.29
16-Jan-2018 21:15 19.76 1,433.84 1,431.88 4.37 0.71 707.23 100.14 67.57 212.25
16-Jan-2018 21:00 19.78 1,430.83 1,428.90 4.40 0.71 705.26 100.17 67.60 212.31
16-Jan-2018 20:50 19.79 1,426.92 1,425.00 4.39 0.71 698.88 100.11 67.62 212.20
16-Jan-2018 20:45 19.79 1,424.18 1,422.27 4.38 0.71 698.06 100.43 67.62 212.77
16-Jan-2018 20:40 19.78 1,419.93 1,418.01 4.34 0.71 695.76 100.17 67.60 212.31
16-Jan-2018 20:35 19.76 1,417.46 1,415.53 4.33 0.71 694.77 100.24 67.57 212.43
16-Jan-2018 20:30 19.74 1,413.87 1,411.92 4.32 0.70 693.01 100.18 67.53 212.32
16-Jan-2018 20:25 19.73 1,411.47 1,409.52 4.32 0.70 691.88 100.26 67.51 212.47
16-Jan-2018 20:20 19.73 1,409.08 1,407.13 4.30 0.70 690.66 100.32 67.51 212.58
16-Jan-2018 20:15 19.70 1,414.09 1,412.09 4.29 0.70 689.26 100.37 67.46 212.67
16-Jan-2018 20:10 19.65 1,410.54 1,408.49 4.27 0.70 686.96 100.32 67.37 212.58
16-Jan-2018 20:00 19.51 1,404.95 1,402.75 4.26 0.70 685.14 100.24 67.12 212.43
16-Jan-2018 19:55 19.44 1,403.66 1,401.38 4.25 0.70 683.78 100.13 66.99 212.23
16-Jan-2018 19:50 19.43 1,406.16 1,403.87 4.25 0.70 685.49 100.22 66.97 212.40
16-Jan-2018 19:40 19.43 1,406.16 1,403.87 4.24 0.70 685.25 100.33 66.97 212.59
16-Jan-2018 19:35 19.43 1,407.09 1,404.79 4.22 0.70 685.49 100.45 66.97 212.81
16-Jan-2018 19:30 19.44 1,405.79 1,403.50 4.20 0.70 684.61 100.39 66.99 212.70
16-Jan-2018 19:20 19.46 1,406.84 1,404.57 4.17 0.70 684.83 100.44 67.03 212.79
16-Jan-2018 19:15 19.45 1,401.53 1,399.26 4.14 0.70 683.24 100.30 67.01 212.54
16-Jan-2018 19:10 19.44 1,403.24 1,400.96 4.13 0.70 683.58 100.44 66.99 212.79
16-Jan-2018 19:05 19.44 1,402.42 1,400.13 4.09 0.70 683.23 100.28 66.99 212.50
16-Jan-2018 18:55 19.43 1,403.30 1,401.00 4.08 0.70 683.37 100.32 66.97 212.58
16-Jan-2018 18:50 19.39 1,403.42 1,401.08 4.05 0.70 683.83 100.64 66.90 213.15
16-Jan-2018 18:45 19.38 1,401.17 1,398.82 4.03 0.70 686.53 100.33 66.88 212.59
16-Jan-2018 18:35 19.37 1,404.49 1,402.13 4.00 0.70 688.15 100.50 66.87 212.90
16-Jan-2018 18:30 19.37 1,405.10 1,402.73 3.98 0.70 688.20 100.26 66.87 212.47
16-Jan-2018 18:25 19.37 1,401.45 1,399.09 3.95 0.70 687.16 100.15 66.87 212.27
16-Jan-2018 18:20 19.38 1,407.45 1,405.09 3.95 0.70 689.36 100.67 66.88 213.21
16-Jan-2018 18:10 19.38 1,410.43 1,408.06 3.93 0.70 691.31 100.58 66.88 213.04
16-Jan-2018 18:05 19.37 1,399.94 1,397.58 3.89 0.70 689.99 100.69 66.87 213.24
16-Jan-2018 17:55 19.38 1,402.69 1,400.34 3.87 0.70 691.31 100.53 66.88 212.95
16-Jan-2018 17:45 19.38 1,400.35 1,397.99 3.82 0.70 690.15 100.49 66.88 212.88
16-Jan-2018 17:40 19.38 1,402.78 1,400.43 3.82 0.70 691.56 100.40 66.88 212.72
16-Jan-2018 17:35 19.40 1,413.78 1,411.43 3.78 0.70 688.94 100.19 66.92 212.34
16-Jan-2018 17:30 19.42 1,413.82 1,411.49 3.77 0.70 688.80 100.39 66.96 212.70
16-Jan-2018 17:25 19.42 1,417.95 1,415.61 3.73 0.70 690.46 100.35 66.96 212.63
16-Jan-2018 17:20 19.42 1,419.83 1,417.50 3.69 0.71 691.67 100.35 66.96 212.63
16-Jan-2018 17:10 19.45 1,420.44 1,418.14 3.65 0.71 692.21 100.62 67.01 213.12
16-Jan-2018 17:05 19.46 1,421.29 1,418.99 3.65 0.71 692.32 100.74 67.03 213.33
16-Jan-2018 16:55 19.47 1,418.73 1,416.46 3.60 0.71 691.03 100.78 67.05 213.40
16-Jan-2018 16:50 19.49 1,420.04 1,417.80 3.55 0.71 691.76 100.77 67.08 213.39
16-Jan-2018 16:45 19.52 1,419.08 1,416.87 3.55 0.71 691.75 100.90 67.14 213.62
16-Jan-2018 16:40 19.52 1,418.99 1,416.78 3.51 0.71 691.75 100.93 67.14 213.67
16-Jan-2018 16:35 19.54 1,423.54 1,421.35 3.50 0.71 693.40 100.80 67.17 213.44
16-Jan-2018 16:30 19.56 1,421.91 1,419.75 3.48 0.71 693.12 100.84 67.21 213.51
16-Jan-2018 16:25 19.57 1,426.44 1,424.27 3.46 0.71 695.36 100.82 67.23 213.48
16-Jan-2018 16:20 19.58 1,422.19 1,420.05 3.41 0.71 693.05 100.74 67.24 213.33
16-Jan-2018 16:15 19.58 1,428.07 1,425.92 3.45 0.71 695.64 100.92 67.24 213.66
16-Jan-2018 16:10 19.60 1,428.64 1,426.51 3.42 0.71 700.03 100.84 67.28 213.51
16-Jan-2018 16:05 19.61 1,429.84 1,427.72 3.42 0.71 700.83 100.90 67.30 213.62
16-Jan-2018 15:50 19.62 1,430.32 1,428.21 3.41 0.71 701.07 100.92 67.32 213.66
16-Jan-2018 15:40 19.64 1,431.52 1,429.43 3.39 0.71 701.97 100.93 67.35 213.67
16-Jan-2018 15:30 19.64 1,433.55 1,431.46 3.40 0.71 701.40 100.95 67.35 213.71
16-Jan-2018 15:25 19.65 1,428.49 1,426.41 3.43 0.71 704.39 101.01 67.37 213.82
16-Jan-2018 15:20 19.68 1,431.04 1,428.99 3.43 0.71 705.08 101.12 67.42 214.02
16-Jan-2018 15:15 19.68 1,432.00 1,429.96 3.42 0.71 705.30 100.98 67.42 213.76
16-Jan-2018 15:10 19.70 1,432.58 1,430.56 3.40 0.71 706.38 100.77 67.46 213.39
16-Jan-2018 15:05 19.70 1,434.81 1,432.78 3.41 0.71 706.96 100.89 67.46 213.60
16-Jan-2018 15:00 19.70 1,435.15 1,433.13 3.39 0.71 707.39 100.64 67.46 213.15
16-Jan-2018 14:50 19.71 1,438.61 1,436.59 3.38 0.72 709.16 100.94 67.48 213.69
16-Jan-2018 14:45 19.70 1,438.80 1,436.78 3.37 0.72 709.20 100.85 67.46 213.53
16-Jan-2018 14:35 19.70 1,437.29 1,435.27 3.40 0.72 708.14 101.08 67.46 213.94
16-Jan-2018 14:30 19.71 1,438.71 1,436.68 3.42 0.72 709.47 101.04 67.48 213.87
16-Jan-2018 14:15 19.70 1,441.69 1,439.66 3.46 0.72 711.17 100.89 67.46 213.60
16-Jan-2018 14:10 19.69 1,442.52 1,440.48 3.47 0.72 710.56 101.04 67.44 213.87
16-Jan-2018 14:00 19.69 1,438.66 1,436.62 3.50 0.72 704.68 101.24 67.44 214.23
16-Jan-2018 13:55 19.69 1,439.83 1,437.79 3.50 0.72 705.20 101.26 67.44 214.27
16-Jan-2018 13:50 19.69 1,439.73 1,437.69 3.50 0.72 706.00 101.24 67.44 214.23
16-Jan-2018 13:45 19.68 1,444.00 1,441.93 3.50 0.72 707.20 100.99 67.42 213.78
16-Jan-2018 13:40 19.68 1,445.72 1,443.65 3.52 0.72 708.31 100.93 67.42 213.67
16-Jan-2018 13:30 19.65 1,443.45 1,441.35 3.55 0.72 707.82 100.96 67.37 213.73
16-Jan-2018 13:25 19.63 1,441.78 1,439.67 3.55 0.72 706.47 100.97 67.33 213.75
16-Jan-2018 13:20 19.61 1,451.88 1,449.72 3.55 0.72 707.12 101.11 67.30 214.00
16-Jan-2018 13:05 19.57 1,447.27 1,445.07 3.58 0.72 705.51 100.97 67.23 213.75
16-Jan-2018 13:00 19.52 1,451.75 1,449.48 3.62 0.72 707.11 101.10 67.14 213.98
16-Jan-2018 12:55 19.50 1,448.63 1,446.34 3.62 0.72 705.82 100.94 67.10 213.69
16-Jan-2018 12:45 19.48 1,445.34 1,443.04 3.63 0.72 703.96 101.00 67.06 213.80
16-Jan-2018 12:40 19.46 1,451.43 1,449.10 3.69 0.72 707.18 100.92 67.03 213.66
16-Jan-2018 12:35 19.49 1,454.37 1,452.06 3.70 0.72 707.76 100.91 67.08 213.64
16-Jan-2018 12:30 19.48 1,454.02 1,451.70 3.71 0.72 708.38 100.97 67.06 213.75
16-Jan-2018 12:25 19.47 1,452.33 1,450.00 3.74 0.72 707.57 101.20 67.05 214.16
16-Jan-2018 12:20 19.45 1,454.45 1,452.10 3.73 0.72 708.91 101.29 67.01 214.32
16-Jan-2018 12:10 19.43 1,452.51 1,450.14 3.78 0.72 707.97 101.15 66.97 214.07
16-Jan-2018 12:05 19.41 1,450.93 1,448.53 3.83 0.72 710.90 101.17 66.94 214.11
16-Jan-2018 12:00 19.40 1,449.79 1,447.38 3.83 0.72 710.30 101.40 66.92 214.52
16-Jan-2018 11:45 19.35 1,447.22 1,444.75 3.87 0.72 709.09 101.05 66.83 213.89
16-Jan-2018 11:40 19.33 1,444.57 1,442.09 3.86 0.72 707.22 101.77 66.79 215.19
16-Jan-2018 11:35 19.32 1,442.38 1,439.88 3.91 0.72 707.24 101.57 66.78 214.83
16-Jan-2018 11:30 19.30 1,439.22 1,436.71 3.92 0.72 705.12 101.92 66.74 215.46
16-Jan-2018 11:20 19.26 1,438.88 1,436.32 3.94 0.71 705.00 101.59 66.67 214.86
16-Jan-2018 11:15 19.24 1,430.57 1,428.00 3.96 0.71 705.12 101.37 66.63 214.47
16-Jan-2018 11:10 19.22 1,431.34 1,428.74 4.03 0.71 705.67 101.44 66.60 214.59
16-Jan-2018 11:00 19.19 1,428.39 1,425.74 4.05 0.71 703.99 101.36 66.54 214.45
16-Jan-2018 10:40 19.19 1,433.11 1,430.46 4.06 0.71 699.14 101.46 66.54 214.63
16-Jan-2018 10:35 19.16 1,431.34 1,428.66 4.11 0.71 697.94 101.56 66.49 214.81
16-Jan-2018 10:30 19.16 1,428.30 1,425.62 4.11 0.71 696.67 101.90 66.49 215.42
16-Jan-2018 10:10 19.14 1,433.78 1,431.06 4.10 0.71 698.71 102.23 66.45 216.01
16-Jan-2018 10:05 19.10 1,430.83 1,428.07 4.11 0.71 697.44 102.26 66.38 216.07
16-Jan-2018 09:55 19.06 1,426.33 1,423.53 4.12 0.71 695.26 102.34 66.31 216.21
16-Jan-2018 09:50 19.05 1,425.25 1,422.43 4.13 0.71 694.28 101.85 66.29 215.33
16-Jan-2018 09:45 18.99 1,420.61 1,417.72 4.12 0.71 692.29 101.98 66.18 215.56
16-Jan-2018 09:40 18.96 1,416.84 1,413.93 4.17 0.70 690.01 102.27 66.13 216.09
16-Jan-2018 09:30 18.96 1,413.78 1,410.87 4.14 0.70 689.47 102.30 66.13 216.14
16-Jan-2018 09:20 18.97 1,389.64 1,386.78 4.20 0.69 677.75 102.66 66.15 216.79
16-Jan-2018 09:15 18.96 1,321.46 1,318.74 4.21 0.66 647.25 102.64 66.13 216.75
16-Jan-2018 09:05 18.95 1,410.69 1,407.77 4.28 0.70 691.73 102.36 66.11 216.25
16-Jan-2018 08:55 18.94 1,409.13 1,406.20 4.29 0.70 690.68 102.35 66.09 216.23
16-Jan-2018 08:50 18.93 1,406.38 1,403.44 4.28 0.70 689.08 102.16 66.07 215.89
16-Jan-2018 08:45 18.89 1,406.59 1,403.60 4.21 0.70 688.74 102.12 66.00 215.82
16-Jan-2018 08:40 18.86 1,396.81 1,393.79 4.18 0.69 689.53 102.02 65.95 215.64
16-Jan-2018 08:35 18.83 1,392.29 1,389.25 4.21 0.69 686.55 100.38 65.89 212.68
16-Jan-2018 08:30 18.80 1,391.16 1,388.08 4.25 0.69 685.25 101.09 65.84 213.96
16-Jan-2018 08:25 18.79 1,387.51 1,384.43 4.26 0.69 684.26 100.82 65.82 213.48
16-Jan-2018 08:20 18.78 1,386.41 1,383.32 4.22 0.69 683.38 100.77 65.80 213.39
16-Jan-2018 08:15 18.78 1,382.61 1,379.52 4.20 0.69 681.74 100.68 65.80 213.22
16-Jan-2018 08:00 18.76 1,381.98 1,378.86 4.16 0.69 681.43 100.91 65.77 213.64
16-Jan-2018 07:55 18.75 1,381.20 1,378.07 4.14 0.69 681.32 100.61 65.75 213.10
16-Jan-2018 07:50 18.74 1,379.05 1,375.92 4.13 0.68 680.02 100.82 65.73 213.48
16-Jan-2018 07:40 18.73 1,375.57 1,372.43 4.09 0.68 678.24 100.70 65.71 213.26
16-Jan-2018 07:30 18.74 1,369.00 1,365.89 4.09 0.68 675.03 100.04 65.73 212.07
16-Jan-2018 07:25 18.75 1,368.43 1,365.32 4.09 0.68 674.66 99.76 65.75 211.57
16-Jan-2018 07:15 18.76 1,365.23 1,362.14 4.06 0.68 669.15 99.78 65.77 211.60
16-Jan-2018 06:50 18.76 1,365.90 1,362.83 3.96 0.68 669.94 100.31 65.77 212.56
16-Jan-2018 06:45 18.77 1,363.83 1,360.77 3.94 0.68 668.65 99.95 65.79 211.91
16-Jan-2018 06:35 18.78 1,360.73 1,357.69 3.91 0.68 667.41 99.88 65.80 211.78
16-Jan-2018 06:30 18.80 1,368.13 1,365.10 3.86 0.68 666.45 99.97 65.84 211.95
16-Jan-2018 06:25 18.81 1,367.21 1,364.19 3.85 0.68 666.92 99.87 65.86 211.77
16-Jan-2018 06:20 18.81 1,366.64 1,363.63 3.84 0.68 665.68 100.06 65.86 212.11
16-Jan-2018 06:15 18.82 1,371.22 1,368.21 3.82 0.68 668.63 100.22 65.88 212.40
16-Jan-2018 06:05 18.83 1,371.42 1,368.42 3.79 0.68 668.36 99.77 65.89 211.59
16-Jan-2018 06:00 18.84 1,371.06 1,368.08 3.74 0.68 667.77 100.20 65.91 212.36
16-Jan-2018 05:55 18.85 1,372.04 1,369.07 3.72 0.68 668.48 100.06 65.93 212.11
16-Jan-2018 05:50 18.86 1,368.90 1,365.95 3.70 0.68 667.46 100.10 65.95 212.18
16-Jan-2018 05:45 18.87 1,371.02 1,368.07 3.69 0.68 668.72 99.97 65.97 211.95
16-Jan-2018 05:40 18.86 1,369.38 1,366.43 3.67 0.68 667.93 100.06 65.95 212.11
16-Jan-2018 05:35 18.86 1,368.61 1,365.65 3.65 0.68 667.28 99.97 65.95 211.95
16-Jan-2018 05:25 18.87 1,366.73 1,363.79 3.64 0.68 666.41 99.84 65.97 211.71
16-Jan-2018 05:20 18.88 1,368.36 1,365.43 3.62 0.68 666.78 99.78 65.98 211.60
16-Jan-2018 05:15 18.90 1,371.06 1,368.15 3.58 0.68 668.51 99.71 66.02 211.48
16-Jan-2018 05:05 18.90 1,375.29 1,372.38 3.55 0.68 673.61 99.72 66.02 211.50
16-Jan-2018 05:00 18.91 1,376.94 1,374.04 3.49 0.68 674.57 99.57 66.04 211.23
16-Jan-2018 04:55 18.92 1,376.19 1,373.29 3.46 0.68 674.57 99.91 66.06 211.84
16-Jan-2018 04:45 18.92 1,377.45 1,374.56 3.41 0.68 674.91 99.97 66.06 211.95
16-Jan-2018 04:40 18.92 1,379.30 1,376.41 3.35 0.68 676.05 100.17 66.06 212.31
16-Jan-2018 04:30 18.93 1,381.45 1,378.57 3.34 0.68 676.86 99.94 66.07 211.89
16-Jan-2018 04:20 18.94 1,372.96 1,370.10 3.31 0.68 676.54 99.56 66.09 211.21
16-Jan-2018 04:15 18.95 1,374.12 1,371.28 3.28 0.68 677.07 99.69 66.11 211.44
16-Jan-2018 04:10 18.95 1,370.10 1,367.27 3.27 0.68 675.36 99.69 66.11 211.44
16-Jan-2018 04:05 18.95 1,370.58 1,367.75 3.28 0.68 675.03 99.49 66.11 211.08
16-Jan-2018 04:00 18.95 1,376.35 1,373.51 3.26 0.68 671.45 99.71 66.11 211.48
16-Jan-2018 03:50 18.97 1,378.31 1,375.48 3.27 0.68 671.55 99.74 66.15 211.53
16-Jan-2018 03:45 18.97 1,379.10 1,376.28 3.26 0.68 672.21 99.88 66.15 211.78
16-Jan-2018 03:40 18.98 1,380.37 1,377.55 3.26 0.68 673.25 99.56 66.16 211.21
16-Jan-2018 03:35 18.99 1,382.13 1,379.32 3.26 0.69 673.87 99.63 66.18 211.33
16-Jan-2018 03:30 19.00 1,392.38 1,389.57 3.26 0.69 678.36 100.23 66.20 212.41
16-Jan-2018 03:20 19.01 1,394.67 1,391.86 3.26 0.69 679.67 99.98 66.22 211.96
16-Jan-2018 03:15 19.03 1,398.50 1,395.71 3.26 0.69 681.86 99.84 66.25 211.71
16-Jan-2018 03:10 19.03 1,398.91 1,396.12 3.27 0.69 681.48 99.73 66.25 211.51
16-Jan-2018 03:05 19.04 1,401.13 1,398.35 3.28 0.70 682.31 99.50 66.27 211.10
16-Jan-2018 03:00 19.05 1,401.86 1,399.08 3.28 0.70 683.19 99.60 66.29 211.28
16-Jan-2018 02:55 19.05 1,401.08 1,398.31 3.29 0.70 683.10 99.62 66.29 211.32
16-Jan-2018 02:45 19.06 1,402.49 1,399.73 3.30 0.70 683.25 99.52 66.31 211.14
16-Jan-2018 02:35 19.06 1,405.32 1,402.56 3.30 0.70 689.06 99.74 66.31 211.53
16-Jan-2018 02:30 19.07 1,406.15 1,403.39 3.31 0.70 689.26 99.60 66.33 211.28
16-Jan-2018 02:25 19.07 1,407.66 1,404.91 3.32 0.70 689.96 99.64 66.33 211.35
16-Jan-2018 02:20 19.08 1,409.92 1,407.17 3.32 0.70 690.61 99.76 66.34 211.57
16-Jan-2018 02:15 19.09 1,413.20 1,410.46 3.34 0.70 692.67 99.86 66.36 211.75
16-Jan-2018 02:10 19.09 1,417.30 1,414.55 3.34 0.70 694.18 99.87 66.36 211.77
16-Jan-2018 02:05 19.09 1,418.23 1,415.48 3.35 0.70 695.18 99.81 66.36 211.66
16-Jan-2018 02:00 19.09 1,420.90 1,418.14 3.36 0.70 696.40 99.87 66.36 211.77
16-Jan-2018 01:55 19.08 1,414.32 1,411.57 3.38 0.70 697.56 99.79 66.34 211.62
16-Jan-2018 01:50 19.08 1,415.44 1,412.68 3.38 0.70 698.06 99.80 66.34 211.64
16-Jan-2018 01:45 19.08 1,417.07 1,414.31 3.39 0.70 698.11 99.81 66.34 211.66
16-Jan-2018 01:40 19.06 1,419.60 1,416.81 3.41 0.71 700.80 99.68 66.31 211.42
16-Jan-2018 01:35 19.06 1,422.89 1,420.09 3.42 0.71 701.76 99.70 66.31 211.46
16-Jan-2018 01:30 19.06 1,420.82 1,418.02 3.43 0.71 700.48 99.75 66.31 211.55
16-Jan-2018 01:20 19.05 1,421.72 1,418.90 3.45 0.71 701.39 99.72 66.29 211.50
16-Jan-2018 01:15 19.03 1,420.74 1,417.90 3.48 0.71 700.64 99.78 66.25 211.60
16-Jan-2018 01:05 19.04 1,419.75 1,416.94 3.51 0.71 699.95 99.94 66.27 211.89
16-Jan-2018 00:55 19.06 1,421.76 1,418.96 3.53 0.71 702.02 100.00 66.31 212.00
16-Jan-2018 00:50 19.08 1,420.58 1,417.81 3.53 0.71 700.62 99.67 66.34 211.41
16-Jan-2018 00:45 19.10 1,421.56 1,418.81 3.54 0.71 701.41 99.90 66.38 211.82
16-Jan-2018 00:40 19.13 1,424.56 1,421.85 3.58 0.71 698.20 99.92 66.43 211.86
16-Jan-2018 00:35 19.12 1,423.81 1,421.09 3.59 0.71 698.13 99.80 66.42 211.64
16-Jan-2018 00:30 19.10 1,423.86 1,421.12 3.62 0.71 698.66 100.00 66.38 212.00
16-Jan-2018 00:25 19.09 1,427.13 1,424.36 3.64 0.71 699.55 99.95 66.36 211.91
16-Jan-2018 00:15 19.06 1,428.08 1,425.27 3.66 0.71 699.76 100.17 66.31 212.31
16-Jan-2018 00:10 19.03 1,426.34 1,423.49 3.66 0.71 699.07 100.18 66.25 212.32
16-Jan-2018 00:05 19.01 1,429.80 1,426.91 3.70 0.71 700.41 100.11 66.22 212.20
16-Jan-2018 00:00 19.00 1,427.81 1,424.93 3.72 0.71 700.60 100.12 66.20 212.22
15-Jan-2018 23:55 19.00 1,438.39 1,435.48 3.73 0.72 700.85 100.17 66.20 212.31
15-Jan-2018 23:45 19.01 1,437.67 1,434.77 3.77 0.71 700.81 100.00 66.22 212.00
15-Jan-2018 23:35 19.01 1,432.32 1,429.43 3.78 0.71 698.47 100.09 66.22 212.16
15-Jan-2018 23:20 19.04 1,426.76 1,423.92 3.83 0.71 695.56 100.13 66.27 212.23
15-Jan-2018 23:15 19.06 1,424.87 1,422.07 3.87 0.71 694.69 100.17 66.31 212.31
15-Jan-2018 23:05 19.07 1,433.46 1,430.65 3.92 0.71 698.76 99.85 66.33 211.73
15-Jan-2018 23:00 19.07 1,432.21 1,429.42 3.91 0.71 697.86 100.19 66.33 212.34
15-Jan-2018 22:30 19.14 1,430.11 1,427.40 4.02 0.71 700.71 100.14 66.45 212.25
15-Jan-2018 22:25 19.14 1,430.97 1,428.26 4.06 0.71 701.38 100.27 66.45 212.49
15-Jan-2018 22:20 19.15 1,430.68 1,427.98 4.08 0.71 701.50 100.33 66.47 212.59
15-Jan-2018 22:15 19.16 1,427.68 1,425.00 4.10 0.71 696.46 100.15 66.49 212.27
15-Jan-2018 22:05 19.17 1,428.77 1,426.11 4.11 0.71 700.10 100.53 66.51 212.95
15-Jan-2018 22:00 19.17 1,425.21 1,422.56 4.14 0.71 698.52 100.14 66.51 212.25
15-Jan-2018 21:55 19.15 1,428.68 1,425.99 4.16 0.71 700.05 100.42 66.47 212.76
15-Jan-2018 21:45 19.18 1,414.59 1,411.97 4.18 0.70 697.66 100.18 66.52 212.32
15-Jan-2018 21:10 19.22 1,425.58 1,422.99 4.24 0.71 694.38 100.38 66.60 212.68
15-Jan-2018 20:50 19.25 1,421.50 1,418.96 4.24 0.71 692.99 100.59 66.65 213.06
15-Jan-2018 20:45 19.26 1,424.86 1,422.31 4.23 0.71 694.32 100.57 66.67 213.03
15-Jan-2018 20:00 19.37 1,404.78 1,402.40 4.19 0.70 685.12 100.62 66.87 213.12
15-Jan-2018 19:50 19.37 1,400.95 1,398.59 4.17 0.70 686.42 100.49 66.87 212.88
15-Jan-2018 19:45 19.38 1,398.65 1,396.30 4.15 0.70 685.83 100.59 66.88 213.06
15-Jan-2018 19:40 19.39 1,395.25 1,392.93 4.13 0.69 683.87 100.35 66.90 212.63
15-Jan-2018 19:20 19.46 1,382.96 1,380.74 4.09 0.68 678.09 100.34 67.03 212.61
15-Jan-2018 19:05 19.48 1,366.50 1,364.32 4.06 0.68 673.77 100.29 67.06 212.52
15-Jan-2018 19:00 19.48 1,363.33 1,361.17 4.04 0.68 672.29 100.36 67.06 212.65
15-Jan-2018 18:50 19.46 1,355.48 1,353.30 4.02 0.67 668.30 100.34 67.03 212.61
15-Jan-2018 18:35 19.43 1,356.20 1,353.97 3.98 0.67 668.51 100.49 66.97 212.88
15-Jan-2018 18:30 19.44 1,354.79 1,352.59 3.96 0.67 667.77 100.54 66.99 212.97
15-Jan-2018 18:20 19.53 1,357.18 1,355.07 3.93 0.67 669.15 100.23 67.15 212.41
15-Jan-2018 18:15 19.57 1,357.32 1,355.26 3.91 0.67 669.27 100.10 67.23 212.18
15-Jan-2018 18:10 19.59 1,355.25 1,353.22 3.89 0.67 667.73 100.45 67.26 212.81
15-Jan-2018 18:05 19.60 1,354.98 1,352.95 3.86 0.67 667.64 100.34 67.28 212.61
15-Jan-2018 18:00 19.60 1,354.41 1,352.39 3.82 0.67 667.88 100.48 67.28 212.86
15-Jan-2018 17:50 19.58 1,353.72 1,351.67 3.74 0.67 664.02 100.55 67.24 212.99
15-Jan-2018 17:40 19.55 1,351.14 1,349.07 3.71 0.67 662.24 100.52 67.19 212.94
15-Jan-2018 17:35 19.53 1,348.19 1,346.10 3.64 0.67 660.80 100.60 67.15 213.08
15-Jan-2018 17:25 19.50 1,344.89 1,342.77 3.61 0.67 659.22 100.39 67.10 212.70
15-Jan-2018 17:20 19.46 1,342.89 1,340.73 3.57 0.67 658.66 100.55 67.03 212.99
15-Jan-2018 17:10 19.44 1,339.44 1,337.26 3.52 0.67 656.46 100.54 66.99 212.97
15-Jan-2018 17:00 19.41 1,343.59 1,341.37 3.48 0.66 654.64 100.66 66.94 213.19
15-Jan-2018 16:55 19.43 1,344.91 1,342.70 3.44 0.67 655.60 100.83 66.97 213.49
15-Jan-2018 16:50 19.42 1,346.58 1,344.37 3.41 0.67 656.55 101.06 66.96 213.91
15-Jan-2018 16:40 19.41 1,346.30 1,344.07 3.38 0.67 656.18 101.20 66.94 214.16
15-Jan-2018 16:35 19.43 1,347.91 1,345.71 3.35 0.67 657.01 100.99 66.97 213.78
15-Jan-2018 16:25 19.44 1,343.62 1,341.43 3.30 0.67 655.19 100.95 66.99 213.71
15-Jan-2018 16:20 19.43 1,343.71 1,341.51 3.26 0.67 654.97 101.18 66.97 214.12
15-Jan-2018 16:15 19.45 1,348.39 1,346.21 3.23 0.67 657.01 101.33 67.01 214.39
15-Jan-2018 16:10 19.43 1,348.85 1,346.65 3.22 0.67 657.69 101.16 66.97 214.09
15-Jan-2018 15:50 19.46 1,350.20 1,348.03 3.08 0.67 658.11 101.35 67.03 214.43
15-Jan-2018 15:15 19.50 1,364.32 1,362.17 2.96 0.68 668.42 100.23 67.10 212.41
15-Jan-2018 15:00 19.47 1,363.70 1,361.52 2.96 0.67 668.40 100.39 67.05 212.70
15-Jan-2018 14:55 19.46 1,364.94 1,362.75 2.94 0.68 672.52 100.53 67.03 212.95
15-Jan-2018 14:30 19.42 1,376.99 1,374.73 2.92 0.68 671.34 100.50 66.96 212.90
15-Jan-2018 14:25 19.42 1,378.46 1,376.20 2.91 0.68 672.10 100.77 66.96 213.39
15-Jan-2018 14:20 19.41 1,382.46 1,380.16 2.90 0.69 673.99 100.78 66.94 213.40
15-Jan-2018 14:15 19.39 1,384.99 1,382.67 2.91 0.69 674.94 100.84 66.90 213.51
15-Jan-2018 14:10 19.39 1,380.65 1,378.34 2.90 0.69 673.12 100.68 66.90 213.22
15-Jan-2018 14:05 19.37 1,380.53 1,378.20 2.89 0.69 672.91 100.08 66.87 212.14
15-Jan-2018 14:00 19.35 1,384.62 1,382.27 2.90 0.69 675.05 100.25 66.83 212.45
15-Jan-2018 13:55 19.34 1,385.18 1,382.80 2.90 0.69 675.37 100.29 66.81 212.52
14-Jan-2018 19:20 19.77 1,379.39 1,377.52 4.06 0.69 676.09 101.03 67.59 213.85
14-Jan-2018 18:10 19.96 1,337.80 1,336.18 3.97 0.66 652.56 100.98 67.93 213.76
14-Jan-2018 16:45 19.93 1,334.89 1,333.25 3.47 0.66 651.55 101.64 67.87 214.95
14-Jan-2018 16:35 19.94 1,333.22 1,331.59 3.44 0.66 653.96 102.04 67.89 215.67
14-Jan-2018 16:30 19.92 1,335.90 1,334.24 3.42 0.66 655.05 102.34 67.86 216.21
14-Jan-2018 16:10 19.90 1,338.13 1,336.45 3.30 0.66 656.37 102.13 67.82 215.83
14-Jan-2018 16:00 20.01 1,332.99 1,331.42 3.25 0.66 657.24 102.10 68.02 215.78
14-Jan-2018 15:55 20.01 1,331.69 1,330.12 3.20 0.66 656.64 102.39 68.02 216.30
14-Jan-2018 15:25 20.01 1,334.38 1,332.82 2.96 0.66 658.16 102.10 68.02 215.78
14-Jan-2018 15:05 20.00 1,335.03 1,333.46 2.89 0.66 659.18 103.21 68.00 217.78
14-Jan-2018 14:35 19.96 1,335.28 1,333.67 2.83 0.66 655.43 102.84 67.93 217.11
14-Jan-2018 13:50 19.81 1,341.61 1,339.83 2.79 0.67 654.56 103.25 67.66 217.85
14-Jan-2018 05:40 19.55 1,297.64 1,295.65 3.56 0.64 633.67 101.81 67.19 215.26
14-Jan-2018 04:45 19.89 1,296.43 1,294.79 3.37 0.64 639.35 101.82 67.80 215.28
14-Jan-2018 03:40 20.06 1,302.84 1,301.36 3.14 0.65 636.18 102.20 68.11 215.96
14-Jan-2018 02:45 20.20 1,318.16 1,316.80 3.04 0.65 646.34 101.09 68.36 213.96
13-Jan-2018 19:35 21.47 1,409.48 1,409.07 4.14 0.70 690.59 102.77 70.65 216.99
13-Jan-2018 19:20 21.55 1,408.15 1,407.79 4.16 0.70 690.52 102.71 70.79 216.88
13-Jan-2018 19:15 21.63 1,398.52 1,398.22 4.14 0.70 689.72 102.69 70.93 216.84
13-Jan-2018 19:05 21.72 1,396.99 1,396.74 4.13 0.70 688.40 102.61 71.10 216.70
13-Jan-2018 19:00 21.76 1,397.19 1,396.96 4.13 0.70 688.33 102.83 71.17 217.09
13-Jan-2018 18:50 21.86 1,394.52 1,394.36 4.13 0.70 687.98 102.52 71.35 216.54
13-Jan-2018 18:45 21.90 1,395.35 1,395.21 4.11 0.70 687.60 102.54 71.42 216.57
13-Jan-2018 18:35 21.99 1,392.22 1,392.12 4.08 0.69 686.06 102.62 71.58 216.72
13-Jan-2018 18:30 22.03 1,394.64 1,394.56 4.06 0.70 687.04 102.64 71.65 216.75
13-Jan-2018 18:20 22.09 1,390.61 1,390.57 4.00 0.69 685.32 102.58 71.76 216.64
13-Jan-2018 18:15 22.13 1,388.15 1,388.13 3.97 0.69 684.31 102.82 71.83 217.08
13-Jan-2018 18:10 22.16 1,382.71 1,382.70 3.95 0.69 681.67 102.54 71.89 216.57
13-Jan-2018 18:00 22.20 1,384.66 1,384.68 3.94 0.69 682.54 102.82 71.96 217.08
13-Jan-2018 17:50 22.23 1,378.52 1,378.54 3.92 0.69 679.59 102.88 72.01 217.18
13-Jan-2018 17:40 22.28 1,374.32 1,374.37 3.88 0.69 674.44 102.86 72.10 217.15
13-Jan-2018 17:35 22.33 1,374.29 1,374.36 3.87 0.69 673.91 102.96 72.19 217.33
13-Jan-2018 17:25 22.35 1,371.51 1,371.60 3.84 0.68 672.50 102.81 72.23 217.06
13-Jan-2018 17:20 22.35 1,369.44 1,369.52 3.81 0.68 671.23 102.79 72.23 217.02
13-Jan-2018 17:10 22.41 1,365.59 1,365.70 3.78 0.68 669.39 102.88 72.34 217.18
13-Jan-2018 17:05 22.49 1,371.49 1,371.63 3.77 0.68 669.28 102.88 72.48 217.18
13-Jan-2018 17:00 22.50 1,368.49 1,368.64 3.74 0.68 667.48 102.90 72.50 217.22
13-Jan-2018 16:55 22.47 1,363.71 1,363.84 3.74 0.68 664.91 102.92 72.45 217.26
13-Jan-2018 16:45 22.47 1,361.14 1,361.28 3.73 0.68 664.01 103.02 72.45 217.44
13-Jan-2018 16:35 22.48 1,350.27 1,350.41 3.66 0.67 658.10 102.94 72.46 217.29
13-Jan-2018 16:30 22.43 1,346.71 1,346.83 3.62 0.67 657.15 102.86 72.37 217.15
13-Jan-2018 16:25 22.34 1,342.96 1,343.03 3.59 0.67 655.53 103.25 72.21 217.85
13-Jan-2018 16:20 22.27 1,340.63 1,340.67 3.57 0.67 653.24 103.17 72.09 217.71
13-Jan-2018 16:15 22.23 1,338.14 1,338.17 3.52 0.67 652.81 103.21 72.01 217.78
13-Jan-2018 15:05 21.88 1,318.40 1,318.25 3.16 0.66 646.67 103.19 71.38 217.74
13-Jan-2018 12:40 21.58 1,354.55 1,354.23 2.88 0.67 664.46 103.49 70.84 218.28
13-Jan-2018 12:25 21.52 1,354.39 1,354.03 2.87 0.67 667.32 103.59 70.74 218.46
13-Jan-2018 11:30 21.24 1,366.45 1,365.90 2.95 0.68 673.72 103.53 70.23 218.35
13-Jan-2018 11:15 21.16 1,371.07 1,370.46 3.03 0.68 676.05 103.31 70.09 217.96
13-Jan-2018 10:50 21.05 1,374.95 1,374.25 3.10 0.68 677.92 103.31 69.89 217.96
13-Jan-2018 10:25 20.90 1,375.02 1,374.21 3.19 0.68 673.96 103.55 69.62 218.39
13-Jan-2018 10:10 20.86 1,379.09 1,378.24 3.25 0.69 673.48 103.41 69.55 218.14
13-Jan-2018 09:35 20.79 1,372.94 1,372.04 3.40 0.68 670.24 103.36 69.42 218.05
13-Jan-2018 01:20 21.58 1,334.86 1,334.54 3.05 0.66 654.84 103.50 70.84 218.30
13-Jan-2018 01:05 21.58 1,330.05 1,329.73 3.07 0.66 654.98 103.66 70.84 218.59
13-Jan-2018 01:00 21.59 1,341.76 1,341.45 3.08 0.67 658.13 103.48 70.86 218.26
13-Jan-2018 00:50 21.59 1,336.12 1,335.80 3.08 0.67 658.23 103.56 70.86 218.41
13-Jan-2018 00:45 21.59 1,337.38 1,337.07 3.08 0.67 659.38 103.52 70.86 218.34
12-Jan-2018 23:45 21.52 1,349.26 1,348.90 3.30 0.67 659.16 102.92 70.74 217.26
12-Jan-2018 23:35 21.51 1,349.74 1,349.37 3.31 0.67 659.59 102.74 70.72 216.93
12-Jan-2018 23:30 21.49 1,349.82 1,349.44 3.32 0.67 659.68 103.57 70.68 218.43
12-Jan-2018 23:25 21.47 1,352.27 1,351.88 3.33 0.67 660.87 103.32 70.65 217.98
12-Jan-2018 23:20 21.44 1,354.81 1,354.40 3.37 0.67 661.34 103.02 70.59 217.44
12-Jan-2018 23:10 21.41 1,354.68 1,354.25 3.38 0.67 662.00 103.01 70.54 217.42
12-Jan-2018 23:05 21.40 1,355.56 1,355.12 3.40 0.67 662.00 102.45 70.52 216.41
12-Jan-2018 21:40 21.00 1,363.63 1,362.90 3.80 0.68 672.35 100.06 69.80 212.11
11-Jan-2018 20:20 20.30 1,353.11 1,351.80 3.98 0.67 661.37 104.26 68.54 219.67
11-Jan-2018 17:05 20.63 1,333.74 1,332.74 4.36 0.66 654.46 103.89 69.13 219.00
11-Jan-2018 17:00 20.73 1,332.66 1,331.75 4.36 0.66 653.65 104.14 69.31 219.45
11-Jan-2018 16:50 20.83 1,331.31 1,330.47 4.36 0.66 652.57 103.02 69.49 217.44
11-Jan-2018 16:45 21.03 1,329.60 1,328.92 4.31 0.66 652.16 100.24 69.85 212.43
11-Jan-2018 16:40 21.06 1,329.05 1,328.39 4.29 0.66 651.38 103.95 69.91 219.11
11-Jan-2018 16:35 21.09 1,333.05 1,332.41 4.27 0.66 651.06 104.30 69.96 219.74
11-Jan-2018 05:10 19.09 1,353.05 1,350.43 3.92 0.67 663.91 104.77 66.36 220.59
11-Jan-2018 04:45 19.13 1,336.35 1,333.81 3.88 0.66 659.05 104.74 66.43 220.53
11-Jan-2018 04:40 19.14 1,333.17 1,330.65 3.88 0.66 657.43 104.65 66.45 220.37
11-Jan-2018 04:25 19.21 1,327.76 1,325.34 3.85 0.66 654.62 104.81 66.58 220.66
11-Jan-2018 04:20 19.24 1,326.15 1,323.75 3.83 0.66 652.92 104.86 66.63 220.75
11-Jan-2018 04:15 19.24 1,324.34 1,321.95 3.82 0.66 653.10 104.81 66.63 220.66
11-Jan-2018 04:10 19.23 1,325.06 1,322.66 3.81 0.66 652.83 104.76 66.61 220.57
11-Jan-2018 04:05 19.21 1,325.06 1,322.64 3.79 0.66 652.78 104.54 66.58 220.17
11-Jan-2018 04:00 19.20 1,321.46 1,319.03 3.77 0.66 651.49 104.70 66.56 220.46
11-Jan-2018 03:45 19.17 1,321.45 1,318.98 3.75 0.66 650.99 104.57 66.51 220.23
11-Jan-2018 03:40 19.17 1,321.45 1,318.98 3.75 0.66 651.08 104.51 66.51 220.12
11-Jan-2018 03:20 19.18 1,321.72 1,319.26 3.72 0.66 648.48 104.40 66.52 219.92
11-Jan-2018 03:15 19.20 1,321.10 1,318.67 3.70 0.66 648.00 104.54 66.56 220.17
11-Jan-2018 03:10 19.20 1,321.91 1,319.48 3.69 0.66 648.57 104.52 66.56 220.14
11-Jan-2018 03:05 19.20 1,321.01 1,318.58 3.67 0.66 648.53 104.62 66.56 220.32
11-Jan-2018 02:55 19.20 1,326.40 1,323.96 3.66 0.66 648.17 104.54 66.56 220.17
11-Jan-2018 02:45 19.19 1,327.48 1,325.04 3.65 0.66 648.22 104.54 66.54 220.17
11-Jan-2018 02:40 19.20 1,328.21 1,325.77 3.62 0.66 648.88 104.52 66.56 220.14
11-Jan-2018 02:30 19.20 1,329.48 1,327.04 3.61 0.66 649.45 104.65 66.56 220.37
11-Jan-2018 02:25 19.20 1,329.93 1,327.49 3.57 0.66 649.89 104.51 66.56 220.12
11-Jan-2018 02:20 19.19 1,329.38 1,326.93 3.56 0.66 649.58 104.47 66.54 220.05
11-Jan-2018 02:10 19.19 1,330.47 1,328.00 3.54 0.66 650.37 104.48 66.54 220.06
11-Jan-2018 02:05 19.18 1,327.56 1,325.10 3.52 0.66 648.70 104.49 66.52 220.08
11-Jan-2018 02:00 19.15 1,330.99 1,328.49 3.50 0.66 649.88 104.35 66.47 219.83
11-Jan-2018 01:50 19.16 1,328.46 1,325.97 3.48 0.66 649.35 104.56 66.49 220.21
11-Jan-2018 01:15 19.08 1,330.31 1,327.72 3.37 0.66 652.43 104.54 66.34 220.17
11-Jan-2018 00:20 19.25 1,330.23 1,327.85 3.09 0.66 650.04 104.74 66.65 220.53
10-Jan-2018 23:55 19.29 1,328.89 1,326.56 2.99 0.66 649.16 104.58 66.72 220.24
10-Jan-2018 23:35 19.33 1,319.26 1,316.99 2.94 0.65 644.82 104.77 66.79 220.59
10-Jan-2018 21:05 19.29 1,344.51 1,342.15 3.43 0.67 662.93 104.74 66.72 220.53
10-Jan-2018 10:15 18.54 1,395.58 1,392.12 3.06 0.69 679.48 104.60 65.37 220.28
10-Jan-2018 08:55 18.34 1,381.37 1,377.65 3.43 0.68 677.06 104.34 65.01 219.81
10-Jan-2018 08:50 18.34 1,381.85 1,378.13 3.46 0.68 677.53 104.48 65.01 220.06
10-Jan-2018 08:45 18.35 1,381.76 1,378.05 3.48 0.68 677.53 104.44 65.03 219.99
10-Jan-2018 08:25 18.38 1,380.76 1,377.09 3.55 0.68 679.87 104.47 65.08 220.05
10-Jan-2018 08:20 18.38 1,382.11 1,378.44 3.58 0.69 680.07 104.50 65.08 220.10
10-Jan-2018 08:15 18.38 1,381.72 1,378.05 3.62 0.69 680.54 104.63 65.08 220.33
10-Jan-2018 04:55 18.28 1,427.72 1,423.78 4.02 0.71 698.33 104.98 64.90 220.96
10-Jan-2018 04:45 18.27 1,427.82 1,423.87 4.06 0.71 699.04 104.90 64.89 220.82
10-Jan-2018 04:40 18.27 1,429.44 1,425.49 4.09 0.71 699.13 104.92 64.89 220.86
10-Jan-2018 04:35 18.27 1,428.52 1,424.56 4.09 0.71 699.47 104.96 64.89 220.93
10-Jan-2018 04:15 18.28 1,420.10 1,416.17 4.14 0.70 698.29 104.86 64.90 220.75
10-Jan-2018 01:45 18.57 1,364.85 1,361.50 3.66 0.68 670.58 104.97 65.43 220.95
10-Jan-2018 01:40 18.57 1,363.91 1,360.57 3.63 0.68 670.81 104.99 65.43 220.98
09-Jan-2018 19:55 18.65 1,434.33 1,430.94 3.55 0.71 701.76 104.93 65.57 220.87
09-Jan-2018 19:50 18.66 1,436.56 1,433.18 3.57 0.71 702.38 104.90 65.59 220.82
09-Jan-2018 19:45 18.66 1,436.99 1,433.61 3.60 0.71 703.26 104.91 65.59 220.84
08-Jan-2018 06:25 16.11 1,456.04 1,447.73 3.67 0.72 713.17 105.41 61.00 221.74
08-Jan-2018 06:10 16.10 1,479.33 1,470.87 3.77 0.73 721.78 105.38 60.98 221.68
08-Jan-2018 06:00 16.10 1,488.83 1,480.32 3.78 0.73 720.73 105.36 60.98 221.65
08-Jan-2018 05:45 16.12 1,499.57 1,491.05 3.81 0.74 725.69 105.33 61.02 221.59
08-Jan-2018 05:30 16.14 1,492.63 1,484.18 3.90 0.74 722.37 105.32 61.05 221.58
08-Jan-2018 05:25 16.12 1,500.38 1,491.84 3.90 0.74 726.34 105.36 61.02 221.65
08-Jan-2018 05:20 16.09 1,508.49 1,499.83 3.94 0.74 730.23 105.25 60.96 221.45
08-Jan-2018 05:10 16.07 1,518.84 1,510.09 4.01 0.75 734.39 105.20 60.93 221.36
08-Jan-2018 05:00 16.12 1,525.75 1,517.08 4.06 0.75 742.10 105.21 61.02 221.38
08-Jan-2018 04:55 16.16 1,531.45 1,522.84 4.08 0.76 745.97 105.12 61.09 221.22
08-Jan-2018 04:50 16.19 1,547.02 1,538.40 4.10 0.76 752.50 105.22 61.14 221.40
08-Jan-2018 04:45 16.26 1,543.28 1,534.85 4.13 0.76 751.18 105.19 61.27 221.34
08-Jan-2018 04:40 16.26 1,541.01 1,532.59 4.15 0.76 750.27 105.13 61.27 221.23
08-Jan-2018 04:35 16.27 1,538.84 1,530.46 4.19 0.76 749.03 105.11 61.29 221.20
08-Jan-2018 04:25 16.27 1,547.92 1,539.50 4.20 0.76 753.10 105.11 61.29 221.20
08-Jan-2018 04:20 16.28 1,545.45 1,537.05 4.22 0.76 751.96 105.11 61.30 221.20
08-Jan-2018 04:10 16.28 1,524.10 1,515.81 4.26 0.75 747.26 105.12 61.30 221.22
08-Jan-2018 03:55 16.28 1,525.67 1,517.38 4.31 0.75 746.76 105.03 61.30 221.05
08-Jan-2018 03:50 16.27 1,528.64 1,520.32 4.32 0.75 748.94 105.02 61.29 221.04
08-Jan-2018 03:45 16.28 1,531.14 1,522.83 4.33 0.76 749.94 105.09 61.30 221.16
08-Jan-2018 03:40 16.30 1,533.08 1,524.81 4.35 0.76 751.16 105.10 61.34 221.18
08-Jan-2018 03:35 16.25 1,541.77 1,533.33 4.36 0.76 755.05 105.10 61.25 221.18
08-Jan-2018 03:30 16.29 1,543.16 1,534.81 4.35 0.76 755.27 105.11 61.32 221.20
08-Jan-2018 03:25 16.30 1,534.67 1,526.40 4.38 0.76 751.39 105.12 61.34 221.22
08-Jan-2018 03:20 16.31 1,537.96 1,529.67 4.41 0.76 751.94 105.05 61.36 221.09
08-Jan-2018 03:15 16.31 1,536.17 1,527.90 4.43 0.76 751.25 105.04 61.36 221.07
08-Jan-2018 03:05 16.32 1,531.76 1,523.54 4.42 0.76 745.29 105.02 61.38 221.04
08-Jan-2018 03:00 16.36 1,526.97 1,518.87 4.43 0.75 742.75 105.08 61.45 221.14
08-Jan-2018 02:40 16.40 1,513.01 1,505.09 4.45 0.75 735.51 104.96 61.52 220.93
08-Jan-2018 02:35 16.42 1,501.92 1,494.10 4.44 0.74 730.95 105.04 61.56 221.07
08-Jan-2018 02:30 16.43 1,491.54 1,483.79 4.45 0.74 726.14 104.94 61.57 220.89
08-Jan-2018 02:10 16.42 1,497.89 1,490.08 4.45 0.74 725.29 104.93 61.56 220.87
08-Jan-2018 02:00 16.32 1,490.23 1,482.25 4.44 0.73 720.93 104.93 61.38 220.87
08-Jan-2018 01:50 16.30 1,489.48 1,481.45 4.42 0.73 721.08 104.97 61.34 220.95
08-Jan-2018 01:45 16.25 1,493.47 1,485.30 4.40 0.74 722.24 104.96 61.25 220.93
08-Jan-2018 01:40 16.21 1,491.52 1,483.25 4.38 0.73 721.32 104.96 61.18 220.93
08-Jan-2018 01:30 16.21 1,485.10 1,476.87 4.36 0.73 718.21 104.95 61.18 220.91
08-Jan-2018 01:25 16.19 1,474.89 1,466.67 4.33 0.73 714.13 104.94 61.14 220.89
08-Jan-2018 01:20 16.16 1,474.96 1,466.67 4.32 0.73 714.17 104.93 61.09 220.87
08-Jan-2018 01:10 16.15 1,466.58 1,458.31 4.32 0.72 710.16 104.91 61.07 220.84
08-Jan-2018 01:00 16.08 1,448.02 1,439.70 4.28 0.71 705.32 104.90 60.94 220.82
08-Jan-2018 00:50 16.06 1,443.06 1,434.70 4.28 0.71 702.49 104.93 60.91 220.87
08-Jan-2018 00:35 15.97 1,419.66 1,411.23 4.23 0.70 691.41 104.92 60.75 220.86
08-Jan-2018 00:10 15.94 1,391.81 1,383.48 4.13 0.68 681.23 104.91 60.69 220.84
08-Jan-2018 00:05 15.96 1,392.04 1,383.75 4.10 0.68 680.94 104.95 60.73 220.91
07-Jan-2018 23:40 15.97 1,411.51 1,403.13 4.01 0.69 682.70 104.88 60.75 220.78
07-Jan-2018 23:35 15.97 1,412.07 1,403.68 3.97 0.69 683.15 104.90 60.75 220.82
07-Jan-2018 23:00 15.98 1,395.40 1,387.14 3.84 0.69 676.73 104.81 60.76 220.66
07-Jan-2018 22:45 16.01 1,388.86 1,380.70 3.78 0.68 673.41 104.79 60.82 220.62
07-Jan-2018 22:40 16.02 1,397.62 1,389.44 3.77 0.69 680.29 104.90 60.84 220.82
07-Jan-2018 22:35 16.03 1,398.49 1,390.33 3.74 0.69 680.26 104.82 60.85 220.68
07-Jan-2018 22:15 16.04 1,388.02 1,379.95 3.69 0.68 675.86 104.87 60.87 220.77
07-Jan-2018 22:00 16.07 1,380.35 1,372.37 3.62 0.68 675.62 104.82 60.93 220.68
07-Jan-2018 21:50 16.10 1,373.22 1,365.37 3.60 0.67 672.79 104.83 60.98 220.69
07-Jan-2018 21:35 16.10 1,373.13 1,365.29 3.54 0.67 672.35 104.78 60.98 220.60
07-Jan-2018 21:25 16.10 1,384.87 1,376.96 3.51 0.68 677.43 104.80 60.98 220.64
07-Jan-2018 21:20 16.10 1,381.32 1,373.43 3.48 0.68 676.14 104.79 60.98 220.62
07-Jan-2018 20:55 16.08 1,381.10 1,373.16 3.44 0.68 673.57 104.81 60.94 220.66
07-Jan-2018 20:30 16.07 1,393.41 1,385.37 3.40 0.68 678.46 104.83 60.93 220.69
07-Jan-2018 20:05 16.08 1,416.56 1,408.41 3.44 0.70 685.96 104.77 60.94 220.59
07-Jan-2018 19:10 16.14 1,434.83 1,426.73 3.59 0.71 694.50 105.08 61.05 221.14
07-Jan-2018 18:55 16.19 1,437.95 1,429.95 3.62 0.71 700.52 105.08 61.14 221.14
07-Jan-2018 18:40 16.29 1,441.77 1,433.96 3.70 0.71 702.32 105.11 61.32 221.20
07-Jan-2018 18:35 16.30 1,439.74 1,431.98 3.72 0.71 702.53 105.10 61.34 221.18
07-Jan-2018 18:30 16.33 1,440.33 1,432.62 3.75 0.71 702.33 105.11 61.39 221.20
07-Jan-2018 18:25 16.34 1,439.79 1,432.12 3.78 0.71 702.07 105.13 61.41 221.23
07-Jan-2018 18:15 16.38 1,443.50 1,435.88 3.84 0.71 703.87 105.09 61.48 221.16
07-Jan-2018 18:05 16.38 1,441.32 1,433.73 3.86 0.71 706.45 105.09 61.48 221.16
07-Jan-2018 18:00 16.39 1,451.38 1,443.76 3.89 0.71 709.90 105.11 61.50 221.20
07-Jan-2018 17:55 16.39 1,451.47 1,443.85 3.91 0.71 710.68 105.02 61.50 221.04
07-Jan-2018 17:50 16.39 1,455.51 1,447.87 3.94 0.72 712.62 105.09 61.50 221.16
07-Jan-2018 17:45 16.40 1,459.31 1,451.66 3.95 0.72 714.52 105.09 61.52 221.16
07-Jan-2018 17:35 16.41 1,472.40 1,464.70 3.98 0.73 713.18 105.08 61.54 221.14
07-Jan-2018 17:30 16.42 1,471.24 1,463.58 4.02 0.73 712.33 105.02 61.56 221.04
07-Jan-2018 17:20 16.43 1,480.78 1,473.09 4.02 0.73 716.94 105.05 61.57 221.09
07-Jan-2018 17:15 16.44 1,490.01 1,482.29 4.04 0.73 721.81 105.05 61.59 221.09
07-Jan-2018 17:10 16.44 1,495.25 1,487.52 4.06 0.74 724.02 105.08 61.59 221.14
07-Jan-2018 17:05 16.45 1,496.67 1,488.94 4.09 0.74 724.49 105.06 61.61 221.11
07-Jan-2018 16:55 16.45 1,504.67 1,496.90 4.11 0.74 728.57 105.13 61.61 221.23
07-Jan-2018 16:50 16.45 1,506.49 1,498.70 4.12 0.74 728.15 105.10 61.61 221.18
07-Jan-2018 16:45 16.47 1,506.73 1,498.99 4.14 0.74 729.55 105.10 61.65 221.18
07-Jan-2018 16:40 16.51 1,506.66 1,499.02 4.16 0.74 728.47 105.14 61.72 221.25
07-Jan-2018 16:35 16.57 1,497.89 1,490.43 4.19 0.74 725.82 105.09 61.83 221.16
07-Jan-2018 16:30 16.65 1,503.44 1,496.14 4.20 0.74 728.51 105.15 61.97 221.27
07-Jan-2018 16:25 16.67 1,508.88 1,501.59 4.21 0.74 734.67 105.09 62.01 221.16
07-Jan-2018 16:20 16.67 1,519.19 1,511.85 4.22 0.75 735.25 105.15 62.01 221.27
07-Jan-2018 16:15 16.66 1,526.00 1,518.59 4.26 0.75 742.46 105.17 61.99 221.31
07-Jan-2018 16:10 16.56 1,532.37 1,524.73 4.27 0.76 745.82 105.28 61.81 221.50
07-Jan-2018 15:55 16.42 1,529.98 1,522.02 4.27 0.75 746.36 105.34 61.56 221.61
07-Jan-2018 15:50 16.42 1,534.57 1,526.58 4.27 0.76 748.64 105.38 61.56 221.68
07-Jan-2018 15:40 16.40 1,532.15 1,524.12 4.28 0.76 750.43 105.33 61.52 221.59
07-Jan-2018 15:35 16.37 1,532.74 1,524.63 4.37 0.76 751.04 105.17 61.47 221.31
07-Jan-2018 15:25 16.36 1,526.22 1,518.13 4.36 0.75 748.67 105.24 61.45 221.43
07-Jan-2018 15:10 16.36 1,517.00 1,508.95 4.42 0.75 743.02 105.31 61.45 221.56
07-Jan-2018 14:55 16.34 1,502.86 1,494.85 4.47 0.74 737.46 105.29 61.41 221.52
07-Jan-2018 14:50 16.34 1,502.60 1,494.58 4.48 0.74 736.49 105.31 61.41 221.56
07-Jan-2018 14:45 16.34 1,506.11 1,498.08 4.49 0.74 737.37 105.34 61.41 221.61
07-Jan-2018 14:40 16.34 1,507.47 1,499.42 4.50 0.74 737.51 105.29 61.41 221.52
07-Jan-2018 14:35 16.34 1,510.19 1,502.13 4.51 0.74 739.68 105.41 61.41 221.74
07-Jan-2018 14:30 16.29 1,511.89 1,503.71 4.52 0.75 739.98 105.38 61.32 221.68
07-Jan-2018 14:25 16.27 1,506.76 1,498.56 4.52 0.74 734.05 105.42 61.29 221.76
07-Jan-2018 14:15 16.26 1,491.78 1,483.63 4.53 0.74 727.78 105.37 61.27 221.67
07-Jan-2018 14:10 16.23 1,490.78 1,482.56 4.54 0.74 727.08 105.38 61.21 221.68
07-Jan-2018 14:05 16.18 1,488.32 1,480.00 4.52 0.73 725.63 105.59 61.12 222.06
07-Jan-2018 14:00 16.16 1,492.42 1,484.02 4.55 0.74 726.90 105.58 61.09 222.04
07-Jan-2018 13:50 16.12 1,487.38 1,478.93 4.52 0.74 724.97 105.66 61.02 222.19
07-Jan-2018 13:45 16.05 1,487.71 1,479.07 4.51 0.73 724.54 105.63 60.89 222.13
07-Jan-2018 13:40 16.01 1,501.19 1,492.38 4.53 0.74 727.26 105.63 60.82 222.13
07-Jan-2018 13:30 15.97 1,505.45 1,496.52 4.47 0.74 728.33 105.70 60.75 222.26
07-Jan-2018 13:25 15.92 1,491.65 1,482.67 4.46 0.73 722.71 105.75 60.66 222.35
07-Jan-2018 13:20 15.88 1,487.18 1,478.14 4.42 0.73 720.07 105.74 60.58 222.33
07-Jan-2018 13:15 15.86 1,483.41 1,474.33 4.41 0.73 719.32 105.75 60.55 222.35
07-Jan-2018 13:10 15.82 1,481.25 1,472.09 4.40 0.73 717.70 105.75 60.48 222.35
07-Jan-2018 13:05 15.80 1,484.33 1,475.08 4.38 0.73 718.19 105.77 60.44 222.39
07-Jan-2018 12:55 15.76 1,480.61 1,471.30 4.41 0.73 716.22 105.74 60.37 222.33
07-Jan-2018 12:50 15.72 1,469.88 1,460.52 4.30 0.72 712.03 105.72 60.30 222.30
07-Jan-2018 12:45 15.69 1,466.22 1,456.83 4.25 0.72 710.04 105.73 60.24 222.31
07-Jan-2018 12:40 15.65 1,456.81 1,447.37 4.24 0.72 709.91 105.73 60.17 222.31
07-Jan-2018 12:30 15.62 1,456.07 1,446.55 4.21 0.72 709.03 105.66 60.12 222.19
07-Jan-2018 12:25 15.58 1,450.48 1,440.91 4.21 0.71 704.66 105.73 60.04 222.31
07-Jan-2018 12:20 15.53 1,429.79 1,420.21 4.11 0.70 696.32 105.80 59.95 222.44
07-Jan-2018 12:10 15.44 1,420.68 1,410.94 4.10 0.70 690.51 105.74 59.79 222.33
07-Jan-2018 11:55 15.33 1,400.53 1,390.66 4.00 0.68 681.11 105.86 59.59 222.55
07-Jan-2018 11:50 15.28 1,385.96 1,376.04 3.96 0.68 677.51 105.87 59.50 222.57
07-Jan-2018 11:45 15.18 1,377.01 1,366.91 3.83 0.67 673.58 105.81 59.32 222.46
07-Jan-2018 11:35 15.15 1,380.30 1,370.10 3.82 0.68 674.28 105.86 59.27 222.55
07-Jan-2018 11:30 15.12 1,383.16 1,372.86 3.69 0.68 675.07 105.89 59.22 222.60
07-Jan-2018 11:20 15.11 1,380.13 1,369.82 3.63 0.68 668.54 105.91 59.20 222.64
07-Jan-2018 11:15 15.08 1,383.51 1,373.09 3.58 0.68 670.34 105.84 59.14 222.51
07-Jan-2018 11:10 15.06 1,389.35 1,378.85 3.59 0.68 672.11 105.86 59.11 222.55
07-Jan-2018 11:05 15.05 1,387.10 1,376.58 3.52 0.68 670.65 105.84 59.09 222.51
07-Jan-2018 10:55 15.03 1,382.98 1,372.44 3.47 0.68 669.96 105.86 59.05 222.55
07-Jan-2018 10:50 15.00 1,382.31 1,371.69 3.45 0.68 669.35 105.85 59.00 222.53
07-Jan-2018 10:45 14.99 1,378.60 1,368.00 3.44 0.67 668.08 105.79 58.98 222.42
07-Jan-2018 10:40 14.98 1,379.54 1,368.89 3.40 0.68 667.65 105.93 58.96 222.67
07-Jan-2018 10:35 14.95 1,377.12 1,366.41 3.39 0.67 667.55 20.67 58.91 69.21
07-Jan-2018 10:30 14.91 1,372.45 1,361.67 3.43 0.67 665.69 20.02 58.84 68.04
07-Jan-2018 10:25 14.89 1,363.88 1,353.11 3.45 0.67 660.80 21.03 58.80 69.85
07-Jan-2018 10:20 14.87 1,359.26 1,348.49 3.56 0.67 659.81 17.53 58.77 63.55
07-Jan-2018 10:15 14.81 1,355.71 1,344.79 3.60 0.66 660.76 17.01 58.66 62.62
07-Jan-2018 10:10 14.79 1,355.27 1,344.29 3.52 0.66 660.96 16.91 58.62 62.44
07-Jan-2018 10:05 14.77 1,355.42 1,344.39 3.55 0.66 660.18 16.85 58.59 62.33
07-Jan-2018 09:55 14.77 1,355.08 1,344.05 3.57 0.66 660.46 16.79 58.59 62.22
07-Jan-2018 04:20 15.02 1,466.85 1,455.63 4.09 0.72 715.56 15.94 59.04 60.69
06-Jan-2018 19:30 15.48 1,403.76 1,394.24 3.51 0.69 679.77 18.19 59.86 64.74
06-Jan-2018 19:10 15.51 1,409.66 1,400.17 3.68 0.69 682.15 18.27 59.92 64.89
06-Jan-2018 18:40 15.56 1,412.41 1,403.04 3.75 0.69 687.90 18.11 60.01 64.60
06-Jan-2018 16:45 16.00 1,449.00 1,440.48 4.00 0.71 702.45 18.40 60.80 65.12
06-Jan-2018 13:10 15.66 1,506.94 1,497.20 4.42 0.74 730.34 18.54 60.19 65.37
06-Jan-2018 11:55 14.86 1,443.75 1,432.26 4.21 0.70 703.66 17.42 58.75 63.36
06-Jan-2018 11:35 14.80 1,420.56 1,409.09 4.19 0.70 695.31 16.94 58.64 62.49
06-Jan-2018 05:50 14.90 1,411.82 1,400.69 3.54 0.69 688.17 14.46 58.82 58.03
04-Jan-2018 04:25 17.98 1,358.43 1,354.22 3.70 0.67 659.56 105.21 64.36 221.38
01-Jan-2018 19:00 23.05 1,557.15 1,557.54 4.56 0.78 758.32 23.28 73.49 73.90
01-Jan-2018 18:55 23.09 1,557.36 1,557.76 4.53 0.78 758.08 23.33 73.56 73.99
01-Jan-2018 18:50 23.12 1,557.00 1,557.42 4.52 0.78 757.31 23.38 73.62 74.08
01-Jan-2018 18:45 23.13 1,553.83 1,554.24 4.50 0.78 756.10 23.42 73.63 74.16
01-Jan-2018 18:40 23.15 1,547.74 1,548.16 4.48 0.78 753.48 23.46 73.67 74.23
01-Jan-2018 18:30 23.17 1,547.17 1,547.59 4.46 0.77 752.17 23.50 73.71 74.30
01-Jan-2018 18:25 23.18 1,538.69 1,539.12 4.44 0.77 748.72 23.56 73.72 74.41
01-Jan-2018 18:20 23.21 1,531.04 1,531.48 4.41 0.77 745.40 23.62 73.78 74.52
01-Jan-2018 18:10 23.20 1,521.68 1,522.10 4.39 0.76 740.87 23.62 73.76 74.52
01-Jan-2018 18:05 23.14 1,519.92 1,520.33 4.35 0.76 739.97 23.68 73.65 74.62
01-Jan-2018 17:55 23.13 1,514.22 1,514.62 4.33 0.76 736.90 23.78 73.63 74.80
01-Jan-2018 17:50 23.13 1,512.51 1,512.92 4.31 0.76 735.46 23.78 73.63 74.80
01-Jan-2018 17:45 23.13 1,508.67 1,509.07 4.30 0.75 734.22 23.75 73.63 74.75
01-Jan-2018 17:40 23.13 1,507.81 1,508.21 4.28 0.75 737.16 23.68 73.63 74.62
01-Jan-2018 17:30 23.14 1,503.25 1,503.65 4.27 0.75 736.23 22.98 73.65 73.36
01-Jan-2018 17:25 23.14 1,500.49 1,500.90 4.23 0.75 734.57 23.03 73.65 73.45
01-Jan-2018 17:20 23.15 1,505.23 1,505.64 4.20 0.75 736.26 23.03 73.67 73.45
01-Jan-2018 17:10 23.16 1,500.05 1,500.46 4.17 0.75 737.77 96.13 73.69 205.03
01-Jan-2018 17:05 23.16 1,493.02 1,493.43 4.13 0.75 734.61 97.35 73.69 207.23
01-Jan-2018 16:55 23.07 1,490.27 1,490.65 4.10 0.75 732.63 96.49 73.53 205.68
01-Jan-2018 16:50 23.02 1,487.69 1,488.05 4.07 0.74 731.60 97.65 73.44 207.77
01-Jan-2018 16:45 22.89 1,486.17 1,486.49 4.05 0.74 730.90 97.68 73.20 207.82
01-Jan-2018 16:40 22.77 1,484.56 1,484.84 4.02 0.74 730.45 98.14 72.99 208.65
01-Jan-2018 16:35 22.72 1,484.35 1,484.61 4.00 0.74 730.04 98.90 72.90 210.02
01-Jan-2018 16:30 22.74 1,486.37 1,486.63 3.97 0.74 731.04 98.16 72.93 208.69
01-Jan-2018 16:25 22.75 1,489.74 1,490.01 3.93 0.75 732.65 97.94 72.95 208.29
01-Jan-2018 16:15 22.75 1,489.52 1,489.79 3.87 0.74 732.29 96.72 72.95 206.10
01-Jan-2018 16:10 22.75 1,484.20 1,484.47 3.82 0.74 729.87 99.12 72.95 210.42
01-Jan-2018 16:00 22.79 1,479.74 1,480.02 3.67 0.74 728.07 98.12 73.02 208.62
01-Jan-2018 15:50 22.78 1,475.91 1,476.19 3.63 0.74 726.73 99.85 73.00 211.73
01-Jan-2018 15:45 22.77 1,480.39 1,480.66 3.55 0.74 728.64 96.46 72.99 205.63
01-Jan-2018 15:40 22.77 1,477.45 1,477.72 3.54 0.74 722.47 93.55 72.99 200.39
01-Jan-2018 15:35 22.77 1,487.24 1,487.51 3.50 0.74 727.84 93.53 72.99 200.35
01-Jan-2018 15:30 22.78 1,489.78 1,490.06 3.48 0.74 729.03 96.98 73.00 206.56
01-Jan-2018 15:25 22.79 1,495.14 1,495.42 3.47 0.75 730.79 97.62 73.02 207.72
01-Jan-2018 15:20 22.80 1,497.30 1,497.59 3.47 0.75 732.21 97.83 73.04 208.09
01-Jan-2018 15:15 22.81 1,505.66 1,505.95 3.46 0.75 736.54 97.54 73.06 207.57
01-Jan-2018 15:05 22.85 1,516.42 1,516.73 3.45 0.76 737.74 98.50 73.13 209.30
01-Jan-2018 15:00 22.90 1,519.25 1,519.58 3.35 0.76 739.67 98.13 73.22 208.63
01-Jan-2018 14:50 22.91 1,524.31 1,524.64 3.33 0.76 741.23 99.08 73.24 210.34
01-Jan-2018 14:45 22.95 1,532.52 1,532.87 3.33 0.77 745.19 99.80 73.31 211.64
01-Jan-2018 14:40 22.97 1,537.89 1,538.24 3.32 0.77 747.72 100.43 73.35 212.77
01-Jan-2018 14:35 22.96 1,538.89 1,539.24 3.33 0.77 748.26 100.83 73.33 213.49
01-Jan-2018 14:30 22.94 1,540.34 1,540.69 3.32 0.77 749.29 102.67 73.29 216.81
01-Jan-2018 14:20 22.95 1,548.44 1,548.79 3.33 0.78 752.55 103.84 73.31 218.91
01-Jan-2018 14:15 22.94 1,556.98 1,557.33 3.36 0.78 756.99 104.05 73.29 219.29
01-Jan-2018 14:10 22.94 1,556.86 1,557.22 3.37 0.78 756.55 103.81 73.29 218.86
01-Jan-2018 14:05 22.92 1,551.04 1,551.38 3.38 0.78 754.07 103.73 73.26 218.71
01-Jan-2018 14:00 22.91 1,552.72 1,553.06 3.35 0.78 754.94 104.08 73.24 219.34
01-Jan-2018 13:55 22.90 1,556.32 1,556.66 3.38 0.78 756.68 104.15 73.22 219.47
01-Jan-2018 13:50 22.87 1,558.59 1,558.92 3.38 0.78 758.76 104.10 73.17 219.38
01-Jan-2018 13:45 22.86 1,565.06 1,565.39 3.40 0.78 761.17 104.00 73.15 219.20
01-Jan-2018 13:35 22.80 1,567.82 1,568.12 3.40 0.79 761.91 104.17 73.04 219.51
01-Jan-2018 13:30 22.80 1,566.56 1,566.86 3.41 0.79 765.89 102.77 73.04 216.99
01-Jan-2018 13:15 22.75 1,570.34 1,570.62 3.46 0.79 767.79 103.29 72.95 217.92
01-Jan-2018 13:10 22.75 1,573.09 1,573.37 3.51 0.79 769.41 103.09 72.95 217.56
01-Jan-2018 13:00 22.70 1,563.75 1,564.01 3.54 0.78 768.85 102.22 72.86 216.00
01-Jan-2018 11:20 22.38 1,606.26 1,606.37 4.14 0.81 781.46 26.71 72.28 80.08
01-Jan-2018 11:15 22.43 1,618.14 1,618.28 4.16 0.81 786.56 26.65 72.37 79.97
01-Jan-2018 11:10 22.40 1,612.71 1,612.83 4.19 0.81 784.23 26.65 72.32 79.97
01-Jan-2018 10:55 22.39 1,607.56 1,607.68 4.24 0.81 786.37 26.79 72.30 80.22
01-Jan-2018 10:50 22.38 1,612.81 1,612.92 4.25 0.81 788.87 26.87 72.28 80.37
01-Jan-2018 10:40 22.39 1,621.72 1,621.84 4.30 0.81 793.88 26.11 72.30 79.00
01-Jan-2018 10:35 22.40 1,620.88 1,621.00 4.31 0.81 792.81 25.35 72.32 77.63
01-Jan-2018 10:30 22.39 1,621.23 1,621.35 4.36 0.81 792.93 25.07 72.30 77.13
01-Jan-2018 08:20 22.03 1,574.85 1,574.77 3.95 0.79 770.68 23.00 71.65 73.40
01-Jan-2018 08:15 21.98 1,579.50 1,579.39 3.99 0.79 768.58 23.08 71.56 73.54
01-Jan-2018 08:10 21.97 1,588.88 1,588.76 4.00 0.79 772.78 22.35 71.55 72.23
01-Jan-2018 08:00 21.94 1,579.72 1,579.58 4.04 0.79 768.42 21.89 71.49 71.40
01-Jan-2018 07:50 21.93 1,578.02 1,577.87 4.08 0.79 767.22 97.50 71.47 207.50
01-Jan-2018 07:45 21.90 1,573.38 1,573.22 4.15 0.79 764.99 21.61 71.42 70.90
01-Jan-2018 07:35 21.89 1,575.07 1,574.91 4.19 0.79 766.40 23.08 71.40 73.54
01-Jan-2018 07:30 21.88 1,570.80 1,570.63 4.20 0.79 764.07 23.25 71.38 73.85
01-Jan-2018 07:25 21.85 1,571.14 1,570.95 4.25 0.79 764.29 23.09 71.33 73.56
01-Jan-2018 07:20 21.84 1,561.66 1,561.46 4.27 0.78 759.39 22.97 71.31 73.35
01-Jan-2018 07:00 21.74 1,553.00 1,552.74 4.21 0.78 754.85 22.89 71.13 73.20
01-Jan-2018 06:50 21.73 1,538.60 1,538.33 4.20 0.77 747.91 22.59 71.11 72.66
01-Jan-2018 06:45 21.72 1,533.26 1,532.99 4.18 0.77 745.65 22.58 71.10 72.64
01-Jan-2018 06:40 21.69 1,523.45 1,523.16 4.16 0.76 744.64 22.38 71.04 72.28
01-Jan-2018 06:35 21.63 1,516.62 1,516.29 4.14 0.76 741.56 22.35 70.93 72.23
01-Jan-2018 01:40 21.71 1,516.42 1,516.14 2.96 0.76 741.51 22.90 71.08 73.22
01-Jan-2018 01:35 21.72 1,516.09 1,515.82 2.98 0.76 742.58 22.90 71.10 73.22